<?xml version="1.0" encoding="UTF-8" standalone="no" ?>
<gpx xmlns="http://www.topografix.com/GPX/1/1" xmlns:xsi="http://www.w3.org/2001/XMLSchema-instance" xsi:schemaLocation="http://www.topografix.com/GPX/1/1 http://www.topografix.com/GPX/1/1/gpx.xsd" version="1.1" creator="VisuGPX - https://www.visugpx.com">
  <metadata>
    <name>2015-02-20 Raquettes Grand Ventron</name>
    <desc><![CDATA[Raquettes Grand Ventron]]></desc>
  </metadata>
  <trk>
    <name><![CDATA[name-1-F]]></name>
    <trkseg>
      <trkpt lat="47.94783" lon="6.90624">
        <ele>850</ele>
        <time>2015-02-20T09:01:06Z</time>
      </trkpt>
      <trkpt lat="47.94778" lon="6.90636">
        <ele>850</ele>
        <time>2015-02-20T09:01:16Z</time>
      </trkpt>
      <trkpt lat="47.94771" lon="6.90646">
        <ele>851</ele>
        <time>2015-02-20T09:01:26Z</time>
      </trkpt>
      <trkpt lat="47.9477" lon="6.90662">
        <ele>853</ele>
        <time>2015-02-20T09:01:37Z</time>
      </trkpt>
      <trkpt lat="47.94776" lon="6.90676">
        <ele>854</ele>
        <time>2015-02-20T09:01:48Z</time>
      </trkpt>
      <trkpt lat="47.94781" lon="6.90686">
        <ele>855</ele>
        <time>2015-02-20T09:01:58Z</time>
      </trkpt>
      <trkpt lat="47.94793" lon="6.90693">
        <ele>857</ele>
        <time>2015-02-20T09:02:09Z</time>
      </trkpt>
      <trkpt lat="47.94799" lon="6.90703">
        <ele>858</ele>
        <time>2015-02-20T09:02:19Z</time>
      </trkpt>
      <trkpt lat="47.94809" lon="6.90711">
        <ele>859</ele>
        <time>2015-02-20T09:02:30Z</time>
      </trkpt>
      <trkpt lat="47.94825" lon="6.90714">
        <ele>861</ele>
        <time>2015-02-20T09:02:40Z</time>
      </trkpt>
      <trkpt lat="47.94839" lon="6.90718">
        <ele>863</ele>
        <time>2015-02-20T09:02:51Z</time>
      </trkpt>
      <trkpt lat="47.9485" lon="6.90726">
        <ele>864</ele>
        <time>2015-02-20T09:03:01Z</time>
      </trkpt>
      <trkpt lat="47.94861" lon="6.90738">
        <ele>866</ele>
        <time>2015-02-20T09:03:11Z</time>
      </trkpt>
      <trkpt lat="47.94868" lon="6.90757">
        <ele>868</ele>
        <time>2015-02-20T09:03:22Z</time>
      </trkpt>
      <trkpt lat="47.94872" lon="6.90775">
        <ele>870</ele>
        <time>2015-02-20T09:03:32Z</time>
      </trkpt>
      <trkpt lat="47.94877" lon="6.90794">
        <ele>871</ele>
        <time>2015-02-20T09:03:42Z</time>
      </trkpt>
      <trkpt lat="47.94886" lon="6.9081">
        <ele>874</ele>
        <time>2015-02-20T09:03:53Z</time>
      </trkpt>
      <trkpt lat="47.94898" lon="6.9082">
        <ele>876</ele>
        <time>2015-02-20T09:04:04Z</time>
      </trkpt>
      <trkpt lat="47.94908" lon="6.90825">
        <ele>877</ele>
        <time>2015-02-20T09:04:14Z</time>
      </trkpt>
      <trkpt lat="47.94918" lon="6.90831">
        <ele>879</ele>
        <time>2015-02-20T09:04:24Z</time>
      </trkpt>
      <trkpt lat="47.94928" lon="6.9084">
        <ele>880</ele>
        <time>2015-02-20T09:04:35Z</time>
      </trkpt>
      <trkpt lat="47.94936" lon="6.90847">
        <ele>881</ele>
        <time>2015-02-20T09:04:45Z</time>
      </trkpt>
      <trkpt lat="47.94943" lon="6.90857">
        <ele>881</ele>
        <time>2015-02-20T09:04:55Z</time>
      </trkpt>
      <trkpt lat="47.94949" lon="6.90867">
        <ele>883</ele>
        <time>2015-02-20T09:05:06Z</time>
      </trkpt>
      <trkpt lat="47.94954" lon="6.90876">
        <ele>884</ele>
        <time>2015-02-20T09:05:16Z</time>
      </trkpt>
      <trkpt lat="47.9496" lon="6.90888">
        <ele>885</ele>
        <time>2015-02-20T09:05:27Z</time>
      </trkpt>
      <trkpt lat="47.94968" lon="6.90901">
        <ele>887</ele>
        <time>2015-02-20T09:05:38Z</time>
      </trkpt>
      <trkpt lat="47.94977" lon="6.90917">
        <ele>888</ele>
        <time>2015-02-20T09:05:49Z</time>
      </trkpt>
      <trkpt lat="47.94984" lon="6.90931">
        <ele>890</ele>
        <time>2015-02-20T09:05:59Z</time>
      </trkpt>
      <trkpt lat="47.94992" lon="6.90944">
        <ele>892</ele>
        <time>2015-02-20T09:06:10Z</time>
      </trkpt>
      <trkpt lat="47.95001" lon="6.90953">
        <ele>893</ele>
        <time>2015-02-20T09:06:20Z</time>
      </trkpt>
      <trkpt lat="47.95009" lon="6.90962">
        <ele>894</ele>
        <time>2015-02-20T09:06:30Z</time>
      </trkpt>
      <trkpt lat="47.95017" lon="6.90973">
        <ele>895</ele>
        <time>2015-02-20T09:06:41Z</time>
      </trkpt>
      <trkpt lat="47.95022" lon="6.90983">
        <ele>897</ele>
        <time>2015-02-20T09:06:51Z</time>
      </trkpt>
      <trkpt lat="47.95026" lon="6.90998">
        <ele>898</ele>
        <time>2015-02-20T09:07:02Z</time>
      </trkpt>
      <trkpt lat="47.95029" lon="6.91014">
        <ele>900</ele>
        <time>2015-02-20T09:07:13Z</time>
      </trkpt>
      <trkpt lat="47.95034" lon="6.9103">
        <ele>902</ele>
        <time>2015-02-20T09:07:24Z</time>
      </trkpt>
      <trkpt lat="47.95039" lon="6.91045">
        <ele>903</ele>
        <time>2015-02-20T09:07:35Z</time>
      </trkpt>
      <trkpt lat="47.95044" lon="6.91058">
        <ele>904</ele>
        <time>2015-02-20T09:07:45Z</time>
      </trkpt>
      <trkpt lat="47.9505" lon="6.91069">
        <ele>906</ele>
        <time>2015-02-20T09:07:56Z</time>
      </trkpt>
      <trkpt lat="47.95055" lon="6.91077">
        <ele>907</ele>
        <time>2015-02-20T09:08:06Z</time>
      </trkpt>
      <trkpt lat="47.95062" lon="6.91087">
        <ele>907</ele>
        <time>2015-02-20T09:08:17Z</time>
      </trkpt>
      <trkpt lat="47.95067" lon="6.911">
        <ele>909</ele>
        <time>2015-02-20T09:08:28Z</time>
      </trkpt>
      <trkpt lat="47.95072" lon="6.91111">
        <ele>910</ele>
        <time>2015-02-20T09:08:39Z</time>
      </trkpt>
      <trkpt lat="47.95076" lon="6.91126">
        <ele>911</ele>
        <time>2015-02-20T09:08:50Z</time>
      </trkpt>
      <trkpt lat="47.95078" lon="6.91143">
        <ele>912</ele>
        <time>2015-02-20T09:09:01Z</time>
      </trkpt>
      <trkpt lat="47.95081" lon="6.91157">
        <ele>914</ele>
        <time>2015-02-20T09:09:11Z</time>
      </trkpt>
      <trkpt lat="47.95084" lon="6.91172">
        <ele>915</ele>
        <time>2015-02-20T09:09:22Z</time>
      </trkpt>
      <trkpt lat="47.95086" lon="6.91185">
        <ele>917</ele>
        <time>2015-02-20T09:09:32Z</time>
      </trkpt>
      <trkpt lat="47.95089" lon="6.91199">
        <ele>918</ele>
        <time>2015-02-20T09:09:42Z</time>
      </trkpt>
      <trkpt lat="47.9509" lon="6.91214">
        <ele>919</ele>
        <time>2015-02-20T09:09:53Z</time>
      </trkpt>
      <trkpt lat="47.9509" lon="6.91229">
        <ele>920</ele>
        <time>2015-02-20T09:10:03Z</time>
      </trkpt>
      <trkpt lat="47.95089" lon="6.91245">
        <ele>922</ele>
        <time>2015-02-20T09:10:14Z</time>
      </trkpt>
      <trkpt lat="47.95087" lon="6.91259">
        <ele>923</ele>
        <time>2015-02-20T09:10:24Z</time>
      </trkpt>
      <trkpt lat="47.95085" lon="6.91274">
        <ele>924</ele>
        <time>2015-02-20T09:10:35Z</time>
      </trkpt>
      <trkpt lat="47.95086" lon="6.91288">
        <ele>926</ele>
        <time>2015-02-20T09:10:45Z</time>
      </trkpt>
      <trkpt lat="47.95085" lon="6.91301">
        <ele>927</ele>
        <time>2015-02-20T09:10:55Z</time>
      </trkpt>
      <trkpt lat="47.95083" lon="6.91316">
        <ele>928</ele>
        <time>2015-02-20T09:11:05Z</time>
      </trkpt>
      <trkpt lat="47.95079" lon="6.91331">
        <ele>929</ele>
        <time>2015-02-20T09:11:16Z</time>
      </trkpt>
      <trkpt lat="47.95079" lon="6.91347">
        <ele>930</ele>
        <time>2015-02-20T09:11:26Z</time>
      </trkpt>
      <trkpt lat="47.95082" lon="6.91356">
        <ele>932</ele>
        <time>2015-02-20T09:11:37Z</time>
      </trkpt>
      <trkpt lat="47.95082" lon="6.91357">
        <ele>932</ele>
        <time>2015-02-20T09:11:47Z</time>
      </trkpt>
      <trkpt lat="47.9508" lon="6.91356">
        <ele>932</ele>
        <time>2015-02-20T09:11:57Z</time>
      </trkpt>
      <trkpt lat="47.95077" lon="6.91353">
        <ele>931</ele>
        <time>2015-02-20T09:12:08Z</time>
      </trkpt>
      <trkpt lat="47.95077" lon="6.91346">
        <ele>931</ele>
        <time>2015-02-20T09:12:19Z</time>
      </trkpt>
      <trkpt lat="47.95078" lon="6.91342">
        <ele>931</ele>
        <time>2015-02-20T09:12:30Z</time>
      </trkpt>
      <trkpt lat="47.95078" lon="6.91337">
        <ele>932</ele>
        <time>2015-02-20T09:12:40Z</time>
      </trkpt>
      <trkpt lat="47.95076" lon="6.91334">
        <ele>932</ele>
        <time>2015-02-20T09:12:52Z</time>
      </trkpt>
      <trkpt lat="47.95076" lon="6.91336">
        <ele>932</ele>
        <time>2015-02-20T09:13:02Z</time>
      </trkpt>
      <trkpt lat="47.95078" lon="6.91336">
        <ele>931</ele>
        <time>2015-02-20T09:13:12Z</time>
      </trkpt>
      <trkpt lat="47.95078" lon="6.9134">
        <ele>931</ele>
        <time>2015-02-20T09:13:23Z</time>
      </trkpt>
      <trkpt lat="47.95079" lon="6.91342">
        <ele>931</ele>
        <time>2015-02-20T09:13:34Z</time>
      </trkpt>
      <trkpt lat="47.95081" lon="6.91346">
        <ele>932</ele>
        <time>2015-02-20T09:13:45Z</time>
      </trkpt>
      <trkpt lat="47.95082" lon="6.91348">
        <ele>932</ele>
        <time>2015-02-20T09:13:56Z</time>
      </trkpt>
      <trkpt lat="47.95083" lon="6.9135">
        <ele>932</ele>
        <time>2015-02-20T09:14:07Z</time>
      </trkpt>
      <trkpt lat="47.95083" lon="6.91348">
        <ele>932</ele>
        <time>2015-02-20T09:14:17Z</time>
      </trkpt>
      <trkpt lat="47.9508" lon="6.91349">
        <ele>932</ele>
        <time>2015-02-20T09:14:28Z</time>
      </trkpt>
      <trkpt lat="47.95082" lon="6.91353">
        <ele>932</ele>
        <time>2015-02-20T09:14:38Z</time>
      </trkpt>
      <trkpt lat="47.95085" lon="6.91358">
        <ele>933</ele>
        <time>2015-02-20T09:14:48Z</time>
      </trkpt>
      <trkpt lat="47.95087" lon="6.91358">
        <ele>933</ele>
        <time>2015-02-20T09:15:00Z</time>
      </trkpt>
      <trkpt lat="47.95083" lon="6.91354">
        <ele>933</ele>
        <time>2015-02-20T09:15:11Z</time>
      </trkpt>
      <trkpt lat="47.95084" lon="6.91353">
        <ele>933</ele>
        <time>2015-02-20T09:15:22Z</time>
      </trkpt>
      <trkpt lat="47.95082" lon="6.91353">
        <ele>932</ele>
        <time>2015-02-20T09:15:32Z</time>
      </trkpt>
      <trkpt lat="47.95082" lon="6.91355">
        <ele>932</ele>
        <time>2015-02-20T09:15:42Z</time>
      </trkpt>
      <trkpt lat="47.95086" lon="6.91357">
        <ele>933</ele>
        <time>2015-02-20T09:15:53Z</time>
      </trkpt>
      <trkpt lat="47.95094" lon="6.91357">
        <ele>933</ele>
        <time>2015-02-20T09:16:03Z</time>
      </trkpt>
      <trkpt lat="47.95103" lon="6.91356">
        <ele>934</ele>
        <time>2015-02-20T09:16:14Z</time>
      </trkpt>
      <trkpt lat="47.95115" lon="6.91356">
        <ele>935</ele>
        <time>2015-02-20T09:16:24Z</time>
      </trkpt>
      <trkpt lat="47.95123" lon="6.91351">
        <ele>937</ele>
        <time>2015-02-20T09:16:34Z</time>
      </trkpt>
      <trkpt lat="47.95133" lon="6.91353">
        <ele>938</ele>
        <time>2015-02-20T09:16:44Z</time>
      </trkpt>
      <trkpt lat="47.95143" lon="6.91361">
        <ele>940</ele>
        <time>2015-02-20T09:16:55Z</time>
      </trkpt>
      <trkpt lat="47.95148" lon="6.91365">
        <ele>941</ele>
        <time>2015-02-20T09:17:05Z</time>
      </trkpt>
      <trkpt lat="47.95159" lon="6.91375">
        <ele>942</ele>
        <time>2015-02-20T09:17:16Z</time>
      </trkpt>
      <trkpt lat="47.95168" lon="6.91384">
        <ele>943</ele>
        <time>2015-02-20T09:17:26Z</time>
      </trkpt>
      <trkpt lat="47.95178" lon="6.91395">
        <ele>944</ele>
        <time>2015-02-20T09:17:37Z</time>
      </trkpt>
      <trkpt lat="47.95187" lon="6.91404">
        <ele>945</ele>
        <time>2015-02-20T09:17:47Z</time>
      </trkpt>
      <trkpt lat="47.95192" lon="6.91415">
        <ele>946</ele>
        <time>2015-02-20T09:17:57Z</time>
      </trkpt>
      <trkpt lat="47.95198" lon="6.91428">
        <ele>947</ele>
        <time>2015-02-20T09:18:07Z</time>
      </trkpt>
      <trkpt lat="47.95205" lon="6.91437">
        <ele>949</ele>
        <time>2015-02-20T09:18:18Z</time>
      </trkpt>
      <trkpt lat="47.95212" lon="6.91438">
        <ele>949</ele>
        <time>2015-02-20T09:18:28Z</time>
      </trkpt>
      <trkpt lat="47.95219" lon="6.91436">
        <ele>951</ele>
        <time>2015-02-20T09:18:38Z</time>
      </trkpt>
      <trkpt lat="47.95227" lon="6.91436">
        <ele>953</ele>
        <time>2015-02-20T09:18:48Z</time>
      </trkpt>
      <trkpt lat="47.95237" lon="6.91434">
        <ele>953</ele>
        <time>2015-02-20T09:18:58Z</time>
      </trkpt>
      <trkpt lat="47.95247" lon="6.91436">
        <ele>954</ele>
        <time>2015-02-20T09:19:08Z</time>
      </trkpt>
      <trkpt lat="47.95256" lon="6.91441">
        <ele>955</ele>
        <time>2015-02-20T09:19:18Z</time>
      </trkpt>
      <trkpt lat="47.95267" lon="6.91448">
        <ele>957</ele>
        <time>2015-02-20T09:19:29Z</time>
      </trkpt>
      <trkpt lat="47.95275" lon="6.91451">
        <ele>958</ele>
        <time>2015-02-20T09:19:39Z</time>
      </trkpt>
      <trkpt lat="47.95287" lon="6.9145">
        <ele>959</ele>
        <time>2015-02-20T09:19:50Z</time>
      </trkpt>
      <trkpt lat="47.95295" lon="6.9145">
        <ele>960</ele>
        <time>2015-02-20T09:20:00Z</time>
      </trkpt>
      <trkpt lat="47.95306" lon="6.91454">
        <ele>961</ele>
        <time>2015-02-20T09:20:11Z</time>
      </trkpt>
      <trkpt lat="47.95317" lon="6.91459">
        <ele>963</ele>
        <time>2015-02-20T09:20:22Z</time>
      </trkpt>
      <trkpt lat="47.95327" lon="6.91464">
        <ele>963</ele>
        <time>2015-02-20T09:20:33Z</time>
      </trkpt>
      <trkpt lat="47.95336" lon="6.91467">
        <ele>965</ele>
        <time>2015-02-20T09:20:43Z</time>
      </trkpt>
      <trkpt lat="47.95346" lon="6.91469">
        <ele>966</ele>
        <time>2015-02-20T09:20:54Z</time>
      </trkpt>
      <trkpt lat="47.95354" lon="6.91471">
        <ele>967</ele>
        <time>2015-02-20T09:21:04Z</time>
      </trkpt>
      <trkpt lat="47.95363" lon="6.91477">
        <ele>968</ele>
        <time>2015-02-20T09:21:14Z</time>
      </trkpt>
      <trkpt lat="47.9537" lon="6.91481">
        <ele>970</ele>
        <time>2015-02-20T09:21:25Z</time>
      </trkpt>
      <trkpt lat="47.95375" lon="6.91479">
        <ele>972</ele>
        <time>2015-02-20T09:21:35Z</time>
      </trkpt>
      <trkpt lat="47.95383" lon="6.91484">
        <ele>972</ele>
        <time>2015-02-20T09:21:45Z</time>
      </trkpt>
      <trkpt lat="47.95391" lon="6.91491">
        <ele>973</ele>
        <time>2015-02-20T09:21:55Z</time>
      </trkpt>
      <trkpt lat="47.95401" lon="6.91496">
        <ele>975</ele>
        <time>2015-02-20T09:22:05Z</time>
      </trkpt>
      <trkpt lat="47.9541" lon="6.91498">
        <ele>976</ele>
        <time>2015-02-20T09:22:16Z</time>
      </trkpt>
      <trkpt lat="47.95418" lon="6.915">
        <ele>977</ele>
        <time>2015-02-20T09:22:26Z</time>
      </trkpt>
      <trkpt lat="47.95427" lon="6.91507">
        <ele>978</ele>
        <time>2015-02-20T09:22:36Z</time>
      </trkpt>
      <trkpt lat="47.95436" lon="6.91514">
        <ele>979</ele>
        <time>2015-02-20T09:22:47Z</time>
      </trkpt>
      <trkpt lat="47.95444" lon="6.91524">
        <ele>980</ele>
        <time>2015-02-20T09:22:57Z</time>
      </trkpt>
      <trkpt lat="47.9545" lon="6.91533">
        <ele>982</ele>
        <time>2015-02-20T09:23:07Z</time>
      </trkpt>
      <trkpt lat="47.95457" lon="6.91546">
        <ele>983</ele>
        <time>2015-02-20T09:23:18Z</time>
      </trkpt>
      <trkpt lat="47.95461" lon="6.91551">
        <ele>984</ele>
        <time>2015-02-20T09:23:28Z</time>
      </trkpt>
      <trkpt lat="47.95461" lon="6.91548">
        <ele>984</ele>
        <time>2015-02-20T09:23:39Z</time>
      </trkpt>
      <trkpt lat="47.95462" lon="6.91546">
        <ele>984</ele>
        <time>2015-02-20T09:23:50Z</time>
      </trkpt>
      <trkpt lat="47.95462" lon="6.91544">
        <ele>984</ele>
        <time>2015-02-20T09:24:00Z</time>
      </trkpt>
      <trkpt lat="47.95459" lon="6.91546">
        <ele>985</ele>
        <time>2015-02-20T09:24:11Z</time>
      </trkpt>
      <trkpt lat="47.95462" lon="6.91548">
        <ele>985</ele>
        <time>2015-02-20T09:24:21Z</time>
      </trkpt>
      <trkpt lat="47.9547" lon="6.91557">
        <ele>986</ele>
        <time>2015-02-20T09:24:31Z</time>
      </trkpt>
      <trkpt lat="47.95477" lon="6.9157">
        <ele>987</ele>
        <time>2015-02-20T09:24:42Z</time>
      </trkpt>
      <trkpt lat="47.95479" lon="6.91574">
        <ele>987</ele>
        <time>2015-02-20T09:24:52Z</time>
      </trkpt>
      <trkpt lat="47.95481" lon="6.91579">
        <ele>988</ele>
        <time>2015-02-20T09:25:03Z</time>
      </trkpt>
      <trkpt lat="47.95482" lon="6.9158">
        <ele>987</ele>
        <time>2015-02-20T09:25:13Z</time>
      </trkpt>
      <trkpt lat="47.95482" lon="6.91578">
        <ele>987</ele>
        <time>2015-02-20T09:25:23Z</time>
      </trkpt>
      <trkpt lat="47.95482" lon="6.91576">
        <ele>987</ele>
        <time>2015-02-20T09:25:33Z</time>
      </trkpt>
      <trkpt lat="47.95483" lon="6.91577">
        <ele>986</ele>
        <time>2015-02-20T09:25:44Z</time>
      </trkpt>
      <trkpt lat="47.95492" lon="6.91585">
        <ele>988</ele>
        <time>2015-02-20T09:25:54Z</time>
      </trkpt>
      <trkpt lat="47.95501" lon="6.91592">
        <ele>990</ele>
        <time>2015-02-20T09:26:05Z</time>
      </trkpt>
      <trkpt lat="47.95502" lon="6.91593">
        <ele>991</ele>
        <time>2015-02-20T09:26:16Z</time>
      </trkpt>
      <trkpt lat="47.95511" lon="6.91605">
        <ele>992</ele>
        <time>2015-02-20T09:26:27Z</time>
      </trkpt>
      <trkpt lat="47.95515" lon="6.91618">
        <ele>993</ele>
        <time>2015-02-20T09:26:37Z</time>
      </trkpt>
      <trkpt lat="47.95519" lon="6.91627">
        <ele>994</ele>
        <time>2015-02-20T09:26:48Z</time>
      </trkpt>
      <trkpt lat="47.95518" lon="6.91632">
        <ele>994</ele>
        <time>2015-02-20T09:26:58Z</time>
      </trkpt>
      <trkpt lat="47.95517" lon="6.91636">
        <ele>994</ele>
        <time>2015-02-20T09:27:09Z</time>
      </trkpt>
      <trkpt lat="47.95522" lon="6.91642">
        <ele>995</ele>
        <time>2015-02-20T09:27:20Z</time>
      </trkpt>
      <trkpt lat="47.9553" lon="6.91641">
        <ele>996</ele>
        <time>2015-02-20T09:27:30Z</time>
      </trkpt>
      <trkpt lat="47.95539" lon="6.91642">
        <ele>998</ele>
        <time>2015-02-20T09:27:41Z</time>
      </trkpt>
      <trkpt lat="47.95548" lon="6.91645">
        <ele>999</ele>
        <time>2015-02-20T09:27:52Z</time>
      </trkpt>
      <trkpt lat="47.95552" lon="6.91658">
        <ele>1000</ele>
        <time>2015-02-20T09:28:02Z</time>
      </trkpt>
      <trkpt lat="47.95557" lon="6.91666">
        <ele>1001</ele>
        <time>2015-02-20T09:28:13Z</time>
      </trkpt>
      <trkpt lat="47.95566" lon="6.91676">
        <ele>1002</ele>
        <time>2015-02-20T09:28:24Z</time>
      </trkpt>
      <trkpt lat="47.95573" lon="6.91685">
        <ele>1002</ele>
        <time>2015-02-20T09:28:35Z</time>
      </trkpt>
      <trkpt lat="47.95575" lon="6.91692">
        <ele>1003</ele>
        <time>2015-02-20T09:28:46Z</time>
      </trkpt>
      <trkpt lat="47.95581" lon="6.91693">
        <ele>1004</ele>
        <time>2015-02-20T09:28:56Z</time>
      </trkpt>
      <trkpt lat="47.95586" lon="6.91698">
        <ele>1004</ele>
        <time>2015-02-20T09:29:07Z</time>
      </trkpt>
      <trkpt lat="47.9559" lon="6.9171">
        <ele>1006</ele>
        <time>2015-02-20T09:29:17Z</time>
      </trkpt>
      <trkpt lat="47.95598" lon="6.91725">
        <ele>1007</ele>
        <time>2015-02-20T09:29:28Z</time>
      </trkpt>
      <trkpt lat="47.95602" lon="6.91741">
        <ele>1008</ele>
        <time>2015-02-20T09:29:39Z</time>
      </trkpt>
      <trkpt lat="47.95603" lon="6.91752">
        <ele>1008</ele>
        <time>2015-02-20T09:29:50Z</time>
      </trkpt>
      <trkpt lat="47.95611" lon="6.9176">
        <ele>1011</ele>
        <time>2015-02-20T09:30:01Z</time>
      </trkpt>
      <trkpt lat="47.95617" lon="6.91759">
        <ele>1012</ele>
        <time>2015-02-20T09:30:11Z</time>
      </trkpt>
      <trkpt lat="47.95619" lon="6.91757">
        <ele>1014</ele>
        <time>2015-02-20T09:30:22Z</time>
      </trkpt>
      <trkpt lat="47.95621" lon="6.91753">
        <ele>1014</ele>
        <time>2015-02-20T09:30:33Z</time>
      </trkpt>
      <trkpt lat="47.95628" lon="6.91749">
        <ele>1014</ele>
        <time>2015-02-20T09:30:43Z</time>
      </trkpt>
      <trkpt lat="47.95639" lon="6.91745">
        <ele>1015</ele>
        <time>2015-02-20T09:30:54Z</time>
      </trkpt>
      <trkpt lat="47.95649" lon="6.91741">
        <ele>1018</ele>
        <time>2015-02-20T09:31:05Z</time>
      </trkpt>
      <trkpt lat="47.95659" lon="6.91736">
        <ele>1019</ele>
        <time>2015-02-20T09:31:16Z</time>
      </trkpt>
      <trkpt lat="47.95669" lon="6.9173">
        <ele>1020</ele>
        <time>2015-02-20T09:31:26Z</time>
      </trkpt>
      <trkpt lat="47.95678" lon="6.91724">
        <ele>1022</ele>
        <time>2015-02-20T09:31:37Z</time>
      </trkpt>
      <trkpt lat="47.95686" lon="6.91716">
        <ele>1023</ele>
        <time>2015-02-20T09:31:47Z</time>
      </trkpt>
      <trkpt lat="47.95694" lon="6.91707">
        <ele>1024</ele>
        <time>2015-02-20T09:31:58Z</time>
      </trkpt>
      <trkpt lat="47.95701" lon="6.91698">
        <ele>1026</ele>
        <time>2015-02-20T09:32:09Z</time>
      </trkpt>
      <trkpt lat="47.9571" lon="6.91689">
        <ele>1027</ele>
        <time>2015-02-20T09:32:19Z</time>
      </trkpt>
      <trkpt lat="47.95718" lon="6.91684">
        <ele>1028</ele>
        <time>2015-02-20T09:32:29Z</time>
      </trkpt>
      <trkpt lat="47.95727" lon="6.91677">
        <ele>1030</ele>
        <time>2015-02-20T09:32:39Z</time>
      </trkpt>
      <trkpt lat="47.95736" lon="6.91669">
        <ele>1031</ele>
        <time>2015-02-20T09:32:49Z</time>
      </trkpt>
      <trkpt lat="47.95745" lon="6.91663">
        <ele>1032</ele>
        <time>2015-02-20T09:32:59Z</time>
      </trkpt>
      <trkpt lat="47.95755" lon="6.91657">
        <ele>1034</ele>
        <time>2015-02-20T09:33:09Z</time>
      </trkpt>
      <trkpt lat="47.95766" lon="6.91648">
        <ele>1035</ele>
        <time>2015-02-20T09:33:20Z</time>
      </trkpt>
      <trkpt lat="47.95776" lon="6.9164">
        <ele>1037</ele>
        <time>2015-02-20T09:33:31Z</time>
      </trkpt>
      <trkpt lat="47.95784" lon="6.91632">
        <ele>1039</ele>
        <time>2015-02-20T09:33:41Z</time>
      </trkpt>
      <trkpt lat="47.95791" lon="6.91625">
        <ele>1040</ele>
        <time>2015-02-20T09:33:52Z</time>
      </trkpt>
      <trkpt lat="47.95799" lon="6.91623">
        <ele>1042</ele>
        <time>2015-02-20T09:34:02Z</time>
      </trkpt>
      <trkpt lat="47.95807" lon="6.9162">
        <ele>1043</ele>
        <time>2015-02-20T09:34:13Z</time>
      </trkpt>
      <trkpt lat="47.95812" lon="6.91615">
        <ele>1044</ele>
        <time>2015-02-20T09:34:23Z</time>
      </trkpt>
      <trkpt lat="47.95817" lon="6.91613">
        <ele>1044</ele>
        <time>2015-02-20T09:34:34Z</time>
      </trkpt>
      <trkpt lat="47.95824" lon="6.91616">
        <ele>1045</ele>
        <time>2015-02-20T09:34:44Z</time>
      </trkpt>
      <trkpt lat="47.95827" lon="6.91624">
        <ele>1046</ele>
        <time>2015-02-20T09:34:54Z</time>
      </trkpt>
      <trkpt lat="47.95827" lon="6.91627">
        <ele>1047</ele>
        <time>2015-02-20T09:35:04Z</time>
      </trkpt>
      <trkpt lat="47.95827" lon="6.91631">
        <ele>1047</ele>
        <time>2015-02-20T09:35:15Z</time>
      </trkpt>
      <trkpt lat="47.95828" lon="6.91641">
        <ele>1047</ele>
        <time>2015-02-20T09:35:26Z</time>
      </trkpt>
      <trkpt lat="47.95832" lon="6.91651">
        <ele>1049</ele>
        <time>2015-02-20T09:35:36Z</time>
      </trkpt>
      <trkpt lat="47.95832" lon="6.91662">
        <ele>1049</ele>
        <time>2015-02-20T09:35:46Z</time>
      </trkpt>
      <trkpt lat="47.9583" lon="6.9167">
        <ele>1050</ele>
        <time>2015-02-20T09:35:57Z</time>
      </trkpt>
      <trkpt lat="47.95828" lon="6.91675">
        <ele>1051</ele>
        <time>2015-02-20T09:36:08Z</time>
      </trkpt>
      <trkpt lat="47.95827" lon="6.91678">
        <ele>1051</ele>
        <time>2015-02-20T09:36:19Z</time>
      </trkpt>
      <trkpt lat="47.95826" lon="6.91678">
        <ele>1052</ele>
        <time>2015-02-20T09:36:29Z</time>
      </trkpt>
      <trkpt lat="47.95823" lon="6.91678">
        <ele>1052</ele>
        <time>2015-02-20T09:36:40Z</time>
      </trkpt>
      <trkpt lat="47.95821" lon="6.9168">
        <ele>1052</ele>
        <time>2015-02-20T09:36:52Z</time>
      </trkpt>
      <trkpt lat="47.95821" lon="6.9168">
        <ele>1051</ele>
        <time>2015-02-20T09:37:04Z</time>
      </trkpt>
      <trkpt lat="47.95822" lon="6.91676">
        <ele>1051</ele>
        <time>2015-02-20T09:37:14Z</time>
      </trkpt>
      <trkpt lat="47.95821" lon="6.91678">
        <ele>1050</ele>
        <time>2015-02-20T09:37:24Z</time>
      </trkpt>
      <trkpt lat="47.95822" lon="6.91689">
        <ele>1051</ele>
        <time>2015-02-20T09:37:35Z</time>
      </trkpt>
      <trkpt lat="47.95819" lon="6.91699">
        <ele>1052</ele>
        <time>2015-02-20T09:37:45Z</time>
      </trkpt>
      <trkpt lat="47.95816" lon="6.9171">
        <ele>1054</ele>
        <time>2015-02-20T09:37:56Z</time>
      </trkpt>
      <trkpt lat="47.95812" lon="6.91719">
        <ele>1055</ele>
        <time>2015-02-20T09:38:06Z</time>
      </trkpt>
      <trkpt lat="47.95808" lon="6.91729">
        <ele>1057</ele>
        <time>2015-02-20T09:38:16Z</time>
      </trkpt>
      <trkpt lat="47.95804" lon="6.9174">
        <ele>1057</ele>
        <time>2015-02-20T09:38:27Z</time>
      </trkpt>
      <trkpt lat="47.958" lon="6.91752">
        <ele>1058</ele>
        <time>2015-02-20T09:38:37Z</time>
      </trkpt>
      <trkpt lat="47.95796" lon="6.91764">
        <ele>1060</ele>
        <time>2015-02-20T09:38:48Z</time>
      </trkpt>
      <trkpt lat="47.95796" lon="6.91775">
        <ele>1061</ele>
        <time>2015-02-20T09:38:58Z</time>
      </trkpt>
      <trkpt lat="47.95793" lon="6.9179">
        <ele>1062</ele>
        <time>2015-02-20T09:39:09Z</time>
      </trkpt>
      <trkpt lat="47.95793" lon="6.91807">
        <ele>1064</ele>
        <time>2015-02-20T09:39:20Z</time>
      </trkpt>
      <trkpt lat="47.95791" lon="6.91818">
        <ele>1065</ele>
        <time>2015-02-20T09:39:30Z</time>
      </trkpt>
      <trkpt lat="47.95788" lon="6.91828">
        <ele>1067</ele>
        <time>2015-02-20T09:39:41Z</time>
      </trkpt>
      <trkpt lat="47.95783" lon="6.91839">
        <ele>1067</ele>
        <time>2015-02-20T09:39:52Z</time>
      </trkpt>
      <trkpt lat="47.95778" lon="6.91852">
        <ele>1069</ele>
        <time>2015-02-20T09:40:03Z</time>
      </trkpt>
      <trkpt lat="47.95771" lon="6.91862">
        <ele>1070</ele>
        <time>2015-02-20T09:40:13Z</time>
      </trkpt>
      <trkpt lat="47.95765" lon="6.91873">
        <ele>1071</ele>
        <time>2015-02-20T09:40:24Z</time>
      </trkpt>
      <trkpt lat="47.9576" lon="6.91885">
        <ele>1072</ele>
        <time>2015-02-20T09:40:34Z</time>
      </trkpt>
      <trkpt lat="47.95756" lon="6.91898">
        <ele>1073</ele>
        <time>2015-02-20T09:40:44Z</time>
      </trkpt>
      <trkpt lat="47.95753" lon="6.91912">
        <ele>1075</ele>
        <time>2015-02-20T09:40:55Z</time>
      </trkpt>
      <trkpt lat="47.9575" lon="6.91926">
        <ele>1076</ele>
        <time>2015-02-20T09:41:06Z</time>
      </trkpt>
      <trkpt lat="47.95745" lon="6.91937">
        <ele>1078</ele>
        <time>2015-02-20T09:41:17Z</time>
      </trkpt>
      <trkpt lat="47.95741" lon="6.91949">
        <ele>1079</ele>
        <time>2015-02-20T09:41:28Z</time>
      </trkpt>
      <trkpt lat="47.95736" lon="6.91958">
        <ele>1079</ele>
        <time>2015-02-20T09:41:38Z</time>
      </trkpt>
      <trkpt lat="47.95732" lon="6.91971">
        <ele>1081</ele>
        <time>2015-02-20T09:41:48Z</time>
      </trkpt>
      <trkpt lat="47.95726" lon="6.91985">
        <ele>1082</ele>
        <time>2015-02-20T09:41:59Z</time>
      </trkpt>
      <trkpt lat="47.95719" lon="6.91998">
        <ele>1083</ele>
        <time>2015-02-20T09:42:10Z</time>
      </trkpt>
      <trkpt lat="47.95714" lon="6.9201">
        <ele>1084</ele>
        <time>2015-02-20T09:42:20Z</time>
      </trkpt>
      <trkpt lat="47.95708" lon="6.92023">
        <ele>1086</ele>
        <time>2015-02-20T09:42:31Z</time>
      </trkpt>
      <trkpt lat="47.95704" lon="6.92037">
        <ele>1087</ele>
        <time>2015-02-20T09:42:42Z</time>
      </trkpt>
      <trkpt lat="47.95701" lon="6.92048">
        <ele>1088</ele>
        <time>2015-02-20T09:42:52Z</time>
      </trkpt>
      <trkpt lat="47.95697" lon="6.92059">
        <ele>1090</ele>
        <time>2015-02-20T09:43:02Z</time>
      </trkpt>
      <trkpt lat="47.95691" lon="6.9207">
        <ele>1092</ele>
        <time>2015-02-20T09:43:13Z</time>
      </trkpt>
      <trkpt lat="47.95685" lon="6.92085">
        <ele>1093</ele>
        <time>2015-02-20T09:43:24Z</time>
      </trkpt>
      <trkpt lat="47.9568" lon="6.92097">
        <ele>1094</ele>
        <time>2015-02-20T09:43:34Z</time>
      </trkpt>
      <trkpt lat="47.95676" lon="6.9211">
        <ele>1095</ele>
        <time>2015-02-20T09:43:45Z</time>
      </trkpt>
      <trkpt lat="47.95672" lon="6.92121">
        <ele>1097</ele>
        <time>2015-02-20T09:43:56Z</time>
      </trkpt>
      <trkpt lat="47.95668" lon="6.92131">
        <ele>1098</ele>
        <time>2015-02-20T09:44:06Z</time>
      </trkpt>
      <trkpt lat="47.95663" lon="6.92141">
        <ele>1099</ele>
        <time>2015-02-20T09:44:17Z</time>
      </trkpt>
      <trkpt lat="47.95658" lon="6.9215">
        <ele>1102</ele>
        <time>2015-02-20T09:44:27Z</time>
      </trkpt>
      <trkpt lat="47.95651" lon="6.92159">
        <ele>1102</ele>
        <time>2015-02-20T09:44:38Z</time>
      </trkpt>
      <trkpt lat="47.95645" lon="6.92168">
        <ele>1103</ele>
        <time>2015-02-20T09:44:48Z</time>
      </trkpt>
      <trkpt lat="47.95638" lon="6.92176">
        <ele>1104</ele>
        <time>2015-02-20T09:44:58Z</time>
      </trkpt>
      <trkpt lat="47.95632" lon="6.92186">
        <ele>1106</ele>
        <time>2015-02-20T09:45:09Z</time>
      </trkpt>
      <trkpt lat="47.95629" lon="6.92194">
        <ele>1108</ele>
        <time>2015-02-20T09:45:19Z</time>
      </trkpt>
      <trkpt lat="47.95629" lon="6.92197">
        <ele>1109</ele>
        <time>2015-02-20T09:45:31Z</time>
      </trkpt>
      <trkpt lat="47.95628" lon="6.92202">
        <ele>1110</ele>
        <time>2015-02-20T09:45:41Z</time>
      </trkpt>
      <trkpt lat="47.95628" lon="6.92202">
        <ele>1110</ele>
        <time>2015-02-20T09:45:52Z</time>
      </trkpt>
      <trkpt lat="47.95628" lon="6.92199">
        <ele>1110</ele>
        <time>2015-02-20T09:46:02Z</time>
      </trkpt>
      <trkpt lat="47.95626" lon="6.92195">
        <ele>1111</ele>
        <time>2015-02-20T09:46:12Z</time>
      </trkpt>
      <trkpt lat="47.95625" lon="6.92192">
        <ele>1111</ele>
        <time>2015-02-20T09:46:22Z</time>
      </trkpt>
      <trkpt lat="47.95624" lon="6.92193">
        <ele>1111</ele>
        <time>2015-02-20T09:46:33Z</time>
      </trkpt>
      <trkpt lat="47.95623" lon="6.92196">
        <ele>1110</ele>
        <time>2015-02-20T09:46:43Z</time>
      </trkpt>
      <trkpt lat="47.95623" lon="6.92196">
        <ele>1110</ele>
        <time>2015-02-20T09:46:54Z</time>
      </trkpt>
      <trkpt lat="47.95622" lon="6.92197">
        <ele>1110</ele>
        <time>2015-02-20T09:47:04Z</time>
      </trkpt>
      <trkpt lat="47.95623" lon="6.92199">
        <ele>1110</ele>
        <time>2015-02-20T09:47:16Z</time>
      </trkpt>
      <trkpt lat="47.95623" lon="6.92201">
        <ele>1110</ele>
        <time>2015-02-20T09:47:26Z</time>
      </trkpt>
      <trkpt lat="47.95623" lon="6.922">
        <ele>1111</ele>
        <time>2015-02-20T09:47:38Z</time>
      </trkpt>
      <trkpt lat="47.95622" lon="6.92199">
        <ele>1111</ele>
        <time>2015-02-20T09:47:48Z</time>
      </trkpt>
      <trkpt lat="47.95621" lon="6.92197">
        <ele>1111</ele>
        <time>2015-02-20T09:47:58Z</time>
      </trkpt>
      <trkpt lat="47.95622" lon="6.92199">
        <ele>1112</ele>
        <time>2015-02-20T09:48:10Z</time>
      </trkpt>
      <trkpt lat="47.95623" lon="6.92201">
        <ele>1109</ele>
        <time>2015-02-20T09:48:21Z</time>
      </trkpt>
      <trkpt lat="47.95623" lon="6.92198">
        <ele>1111</ele>
        <time>2015-02-20T09:48:31Z</time>
      </trkpt>
      <trkpt lat="47.95625" lon="6.92195">
        <ele>1111</ele>
        <time>2015-02-20T09:48:42Z</time>
      </trkpt>
      <trkpt lat="47.95628" lon="6.92194">
        <ele>1110</ele>
        <time>2015-02-20T09:48:53Z</time>
      </trkpt>
      <trkpt lat="47.95633" lon="6.92198">
        <ele>1111</ele>
        <time>2015-02-20T09:49:04Z</time>
      </trkpt>
      <trkpt lat="47.95633" lon="6.92201">
        <ele>1111</ele>
        <time>2015-02-20T09:49:14Z</time>
      </trkpt>
      <trkpt lat="47.95626" lon="6.92204">
        <ele>1110</ele>
        <time>2015-02-20T09:49:25Z</time>
      </trkpt>
      <trkpt lat="47.95618" lon="6.92206">
        <ele>1110</ele>
        <time>2015-02-20T09:49:36Z</time>
      </trkpt>
      <trkpt lat="47.95608" lon="6.92204">
        <ele>1108</ele>
        <time>2015-02-20T09:49:46Z</time>
      </trkpt>
      <trkpt lat="47.95605" lon="6.9221">
        <ele>1108</ele>
        <time>2015-02-20T09:49:56Z</time>
      </trkpt>
      <trkpt lat="47.95604" lon="6.92219">
        <ele>1110</ele>
        <time>2015-02-20T09:50:07Z</time>
      </trkpt>
      <trkpt lat="47.95603" lon="6.92229">
        <ele>1113</ele>
        <time>2015-02-20T09:50:18Z</time>
      </trkpt>
      <trkpt lat="47.95603" lon="6.92239">
        <ele>1116</ele>
        <time>2015-02-20T09:50:28Z</time>
      </trkpt>
      <trkpt lat="47.956" lon="6.92247">
        <ele>1117</ele>
        <time>2015-02-20T09:50:39Z</time>
      </trkpt>
      <trkpt lat="47.95595" lon="6.92253">
        <ele>1118</ele>
        <time>2015-02-20T09:50:49Z</time>
      </trkpt>
      <trkpt lat="47.9559" lon="6.92256">
        <ele>1120</ele>
        <time>2015-02-20T09:51:00Z</time>
      </trkpt>
      <trkpt lat="47.95584" lon="6.9226">
        <ele>1121</ele>
        <time>2015-02-20T09:51:11Z</time>
      </trkpt>
      <trkpt lat="47.95578" lon="6.92264">
        <ele>1122</ele>
        <time>2015-02-20T09:51:22Z</time>
      </trkpt>
      <trkpt lat="47.95576" lon="6.92266">
        <ele>1123</ele>
        <time>2015-02-20T09:51:33Z</time>
      </trkpt>
      <trkpt lat="47.95572" lon="6.92271">
        <ele>1124</ele>
        <time>2015-02-20T09:51:43Z</time>
      </trkpt>
      <trkpt lat="47.95563" lon="6.92272">
        <ele>1125</ele>
        <time>2015-02-20T09:51:54Z</time>
      </trkpt>
      <trkpt lat="47.95555" lon="6.92275">
        <ele>1126</ele>
        <time>2015-02-20T09:52:05Z</time>
      </trkpt>
      <trkpt lat="47.95548" lon="6.92278">
        <ele>1127</ele>
        <time>2015-02-20T09:52:16Z</time>
      </trkpt>
      <trkpt lat="47.95542" lon="6.92282">
        <ele>1128</ele>
        <time>2015-02-20T09:52:27Z</time>
      </trkpt>
      <trkpt lat="47.95533" lon="6.92286">
        <ele>1129</ele>
        <time>2015-02-20T09:52:38Z</time>
      </trkpt>
      <trkpt lat="47.95526" lon="6.92292">
        <ele>1130</ele>
        <time>2015-02-20T09:52:48Z</time>
      </trkpt>
      <trkpt lat="47.95518" lon="6.92298">
        <ele>1131</ele>
        <time>2015-02-20T09:52:59Z</time>
      </trkpt>
      <trkpt lat="47.95511" lon="6.923">
        <ele>1131</ele>
        <time>2015-02-20T09:53:09Z</time>
      </trkpt>
      <trkpt lat="47.95505" lon="6.92306">
        <ele>1132</ele>
        <time>2015-02-20T09:53:19Z</time>
      </trkpt>
      <trkpt lat="47.95499" lon="6.9231">
        <ele>1133</ele>
        <time>2015-02-20T09:53:29Z</time>
      </trkpt>
      <trkpt lat="47.9549" lon="6.92316">
        <ele>1134</ele>
        <time>2015-02-20T09:53:40Z</time>
      </trkpt>
      <trkpt lat="47.9548" lon="6.92323">
        <ele>1134</ele>
        <time>2015-02-20T09:53:51Z</time>
      </trkpt>
      <trkpt lat="47.9547" lon="6.92328">
        <ele>1133</ele>
        <time>2015-02-20T09:54:02Z</time>
      </trkpt>
      <trkpt lat="47.95467" lon="6.9233">
        <ele>1133</ele>
        <time>2015-02-20T09:54:12Z</time>
      </trkpt>
      <trkpt lat="47.95465" lon="6.92331">
        <ele>1134</ele>
        <time>2015-02-20T09:54:24Z</time>
      </trkpt>
      <trkpt lat="47.95465" lon="6.92335">
        <ele>1134</ele>
        <time>2015-02-20T09:54:35Z</time>
      </trkpt>
      <trkpt lat="47.95463" lon="6.9234">
        <ele>1134</ele>
        <time>2015-02-20T09:54:45Z</time>
      </trkpt>
      <trkpt lat="47.95461" lon="6.92336">
        <ele>1135</ele>
        <time>2015-02-20T09:54:56Z</time>
      </trkpt>
      <trkpt lat="47.95459" lon="6.92333">
        <ele>1134</ele>
        <time>2015-02-20T09:55:06Z</time>
      </trkpt>
      <trkpt lat="47.95459" lon="6.92332">
        <ele>1134</ele>
        <time>2015-02-20T09:55:16Z</time>
      </trkpt>
      <trkpt lat="47.95458" lon="6.9233">
        <ele>1134</ele>
        <time>2015-02-20T09:55:27Z</time>
      </trkpt>
      <trkpt lat="47.95458" lon="6.92332">
        <ele>1134</ele>
        <time>2015-02-20T09:55:38Z</time>
      </trkpt>
      <trkpt lat="47.95458" lon="6.92334">
        <ele>1134</ele>
        <time>2015-02-20T09:55:50Z</time>
      </trkpt>
      <trkpt lat="47.95459" lon="6.92335">
        <ele>1134</ele>
        <time>2015-02-20T09:56:00Z</time>
      </trkpt>
      <trkpt lat="47.95459" lon="6.92335">
        <ele>1135</ele>
        <time>2015-02-20T09:56:13Z</time>
      </trkpt>
      <trkpt lat="47.95457" lon="6.92336">
        <ele>1135</ele>
        <time>2015-02-20T09:56:24Z</time>
      </trkpt>
      <trkpt lat="47.95454" lon="6.92337">
        <ele>1134</ele>
        <time>2015-02-20T09:56:34Z</time>
      </trkpt>
      <trkpt lat="47.95454" lon="6.92334">
        <ele>1134</ele>
        <time>2015-02-20T09:56:45Z</time>
      </trkpt>
      <trkpt lat="47.95452" lon="6.92331">
        <ele>1134</ele>
        <time>2015-02-20T09:56:55Z</time>
      </trkpt>
      <trkpt lat="47.95452" lon="6.92328">
        <ele>1134</ele>
        <time>2015-02-20T09:57:07Z</time>
      </trkpt>
      <trkpt lat="47.95453" lon="6.9233">
        <ele>1133</ele>
        <time>2015-02-20T09:57:17Z</time>
      </trkpt>
      <trkpt lat="47.95453" lon="6.92331">
        <ele>1133</ele>
        <time>2015-02-20T09:57:27Z</time>
      </trkpt>
      <trkpt lat="47.95455" lon="6.92333">
        <ele>1134</ele>
        <time>2015-02-20T09:57:38Z</time>
      </trkpt>
      <trkpt lat="47.95458" lon="6.92336">
        <ele>1133</ele>
        <time>2015-02-20T09:57:51Z</time>
      </trkpt>
      <trkpt lat="47.95459" lon="6.92338">
        <ele>1133</ele>
        <time>2015-02-20T09:58:02Z</time>
      </trkpt>
      <trkpt lat="47.95464" lon="6.92347">
        <ele>1135</ele>
        <time>2015-02-20T09:58:12Z</time>
      </trkpt>
      <trkpt lat="47.95469" lon="6.92359">
        <ele>1133</ele>
        <time>2015-02-20T09:58:23Z</time>
      </trkpt>
      <trkpt lat="47.95475" lon="6.92368">
        <ele>1133</ele>
        <time>2015-02-20T09:58:33Z</time>
      </trkpt>
      <trkpt lat="47.95483" lon="6.92376">
        <ele>1134</ele>
        <time>2015-02-20T09:58:44Z</time>
      </trkpt>
      <trkpt lat="47.95491" lon="6.92385">
        <ele>1135</ele>
        <time>2015-02-20T09:58:55Z</time>
      </trkpt>
      <trkpt lat="47.95497" lon="6.92393">
        <ele>1135</ele>
        <time>2015-02-20T09:59:05Z</time>
      </trkpt>
      <trkpt lat="47.95505" lon="6.92399">
        <ele>1136</ele>
        <time>2015-02-20T09:59:16Z</time>
      </trkpt>
      <trkpt lat="47.95512" lon="6.92404">
        <ele>1138</ele>
        <time>2015-02-20T09:59:26Z</time>
      </trkpt>
      <trkpt lat="47.9552" lon="6.9241">
        <ele>1138</ele>
        <time>2015-02-20T09:59:36Z</time>
      </trkpt>
      <trkpt lat="47.95527" lon="6.92416">
        <ele>1139</ele>
        <time>2015-02-20T09:59:47Z</time>
      </trkpt>
      <trkpt lat="47.95534" lon="6.92425">
        <ele>1141</ele>
        <time>2015-02-20T09:59:58Z</time>
      </trkpt>
      <trkpt lat="47.95541" lon="6.92432">
        <ele>1141</ele>
        <time>2015-02-20T10:00:08Z</time>
      </trkpt>
      <trkpt lat="47.95549" lon="6.92442">
        <ele>1143</ele>
        <time>2015-02-20T10:00:19Z</time>
      </trkpt>
      <trkpt lat="47.95555" lon="6.92452">
        <ele>1144</ele>
        <time>2015-02-20T10:00:30Z</time>
      </trkpt>
      <trkpt lat="47.9556" lon="6.92462">
        <ele>1144</ele>
        <time>2015-02-20T10:00:41Z</time>
      </trkpt>
      <trkpt lat="47.95565" lon="6.92471">
        <ele>1145</ele>
        <time>2015-02-20T10:00:51Z</time>
      </trkpt>
      <trkpt lat="47.9557" lon="6.92481">
        <ele>1147</ele>
        <time>2015-02-20T10:01:02Z</time>
      </trkpt>
      <trkpt lat="47.95576" lon="6.9249">
        <ele>1147</ele>
        <time>2015-02-20T10:01:13Z</time>
      </trkpt>
      <trkpt lat="47.95583" lon="6.925">
        <ele>1149</ele>
        <time>2015-02-20T10:01:24Z</time>
      </trkpt>
      <trkpt lat="47.95589" lon="6.92512">
        <ele>1150</ele>
        <time>2015-02-20T10:01:35Z</time>
      </trkpt>
      <trkpt lat="47.95594" lon="6.92523">
        <ele>1152</ele>
        <time>2015-02-20T10:01:45Z</time>
      </trkpt>
      <trkpt lat="47.95598" lon="6.92533">
        <ele>1152</ele>
        <time>2015-02-20T10:01:56Z</time>
      </trkpt>
      <trkpt lat="47.95602" lon="6.92545">
        <ele>1153</ele>
        <time>2015-02-20T10:02:07Z</time>
      </trkpt>
      <trkpt lat="47.95606" lon="6.92555">
        <ele>1155</ele>
        <time>2015-02-20T10:02:17Z</time>
      </trkpt>
      <trkpt lat="47.95611" lon="6.92565">
        <ele>1155</ele>
        <time>2015-02-20T10:02:28Z</time>
      </trkpt>
      <trkpt lat="47.95614" lon="6.92576">
        <ele>1156</ele>
        <time>2015-02-20T10:02:38Z</time>
      </trkpt>
      <trkpt lat="47.95614" lon="6.92587">
        <ele>1156</ele>
        <time>2015-02-20T10:02:48Z</time>
      </trkpt>
      <trkpt lat="47.95613" lon="6.92596">
        <ele>1157</ele>
        <time>2015-02-20T10:02:59Z</time>
      </trkpt>
      <trkpt lat="47.95615" lon="6.92606">
        <ele>1159</ele>
        <time>2015-02-20T10:03:10Z</time>
      </trkpt>
      <trkpt lat="47.95619" lon="6.92608">
        <ele>1161</ele>
        <time>2015-02-20T10:03:20Z</time>
      </trkpt>
      <trkpt lat="47.95619" lon="6.92609">
        <ele>1162</ele>
        <time>2015-02-20T10:03:30Z</time>
      </trkpt>
      <trkpt lat="47.95618" lon="6.92607">
        <ele>1162</ele>
        <time>2015-02-20T10:03:41Z</time>
      </trkpt>
      <trkpt lat="47.95618" lon="6.92606">
        <ele>1162</ele>
        <time>2015-02-20T10:03:51Z</time>
      </trkpt>
      <trkpt lat="47.95618" lon="6.92605">
        <ele>1163</ele>
        <time>2015-02-20T10:04:03Z</time>
      </trkpt>
      <trkpt lat="47.95618" lon="6.92604">
        <ele>1163</ele>
        <time>2015-02-20T10:04:13Z</time>
      </trkpt>
      <trkpt lat="47.9562" lon="6.92603">
        <ele>1162</ele>
        <time>2015-02-20T10:04:24Z</time>
      </trkpt>
      <trkpt lat="47.95621" lon="6.92602">
        <ele>1163</ele>
        <time>2015-02-20T10:04:34Z</time>
      </trkpt>
      <trkpt lat="47.9562" lon="6.92603">
        <ele>1162</ele>
        <time>2015-02-20T10:04:47Z</time>
      </trkpt>
      <trkpt lat="47.9562" lon="6.92603">
        <ele>1162</ele>
        <time>2015-02-20T10:04:58Z</time>
      </trkpt>
      <trkpt lat="47.95623" lon="6.92599">
        <ele>1161</ele>
        <time>2015-02-20T10:05:08Z</time>
      </trkpt>
      <trkpt lat="47.95627" lon="6.92595">
        <ele>1164</ele>
        <time>2015-02-20T10:05:19Z</time>
      </trkpt>
      <trkpt lat="47.95629" lon="6.92593">
        <ele>1165</ele>
        <time>2015-02-20T10:05:30Z</time>
      </trkpt>
      <trkpt lat="47.9563" lon="6.9259">
        <ele>1164</ele>
        <time>2015-02-20T10:05:40Z</time>
      </trkpt>
      <trkpt lat="47.95634" lon="6.92591">
        <ele>1165</ele>
        <time>2015-02-20T10:05:50Z</time>
      </trkpt>
      <trkpt lat="47.95636" lon="6.92592">
        <ele>1165</ele>
        <time>2015-02-20T10:06:01Z</time>
      </trkpt>
      <trkpt lat="47.95642" lon="6.92598">
        <ele>1167</ele>
        <time>2015-02-20T10:06:11Z</time>
      </trkpt>
      <trkpt lat="47.95646" lon="6.92602">
        <ele>1169</ele>
        <time>2015-02-20T10:06:22Z</time>
      </trkpt>
      <trkpt lat="47.95653" lon="6.92604">
        <ele>1169</ele>
        <time>2015-02-20T10:06:33Z</time>
      </trkpt>
      <trkpt lat="47.95659" lon="6.92609">
        <ele>1173</ele>
        <time>2015-02-20T10:06:43Z</time>
      </trkpt>
      <trkpt lat="47.95665" lon="6.92617">
        <ele>1174</ele>
        <time>2015-02-20T10:06:54Z</time>
      </trkpt>
      <trkpt lat="47.95671" lon="6.92626">
        <ele>1176</ele>
        <time>2015-02-20T10:07:05Z</time>
      </trkpt>
      <trkpt lat="47.95673" lon="6.92637">
        <ele>1177</ele>
        <time>2015-02-20T10:07:16Z</time>
      </trkpt>
      <trkpt lat="47.95675" lon="6.9265">
        <ele>1178</ele>
        <time>2015-02-20T10:07:27Z</time>
      </trkpt>
      <trkpt lat="47.95678" lon="6.92663">
        <ele>1178</ele>
        <time>2015-02-20T10:07:37Z</time>
      </trkpt>
      <trkpt lat="47.9568" lon="6.92676">
        <ele>1181</ele>
        <time>2015-02-20T10:07:48Z</time>
      </trkpt>
      <trkpt lat="47.95682" lon="6.92687">
        <ele>1183</ele>
        <time>2015-02-20T10:07:58Z</time>
      </trkpt>
      <trkpt lat="47.95685" lon="6.92699">
        <ele>1182</ele>
        <time>2015-02-20T10:08:09Z</time>
      </trkpt>
      <trkpt lat="47.95684" lon="6.92702">
        <ele>1183</ele>
        <time>2015-02-20T10:08:19Z</time>
      </trkpt>
      <trkpt lat="47.95684" lon="6.92703">
        <ele>1182</ele>
        <time>2015-02-20T10:08:31Z</time>
      </trkpt>
      <trkpt lat="47.95684" lon="6.92708">
        <ele>1183</ele>
        <time>2015-02-20T10:08:42Z</time>
      </trkpt>
      <trkpt lat="47.95684" lon="6.92708">
        <ele>1183</ele>
        <time>2015-02-20T10:08:53Z</time>
      </trkpt>
      <trkpt lat="47.95684" lon="6.92708">
        <ele>1183</ele>
        <time>2015-02-20T10:09:03Z</time>
      </trkpt>
      <trkpt lat="47.95686" lon="6.9271">
        <ele>1182</ele>
        <time>2015-02-20T10:09:13Z</time>
      </trkpt>
      <trkpt lat="47.95688" lon="6.92714">
        <ele>1182</ele>
        <time>2015-02-20T10:09:27Z</time>
      </trkpt>
      <trkpt lat="47.95692" lon="6.92725">
        <ele>1183</ele>
        <time>2015-02-20T10:09:37Z</time>
      </trkpt>
      <trkpt lat="47.95697" lon="6.9274">
        <ele>1183</ele>
        <time>2015-02-20T10:09:48Z</time>
      </trkpt>
      <trkpt lat="47.957" lon="6.92746">
        <ele>1183</ele>
        <time>2015-02-20T10:10:00Z</time>
      </trkpt>
      <trkpt lat="47.95705" lon="6.92756">
        <ele>1183</ele>
        <time>2015-02-20T10:10:11Z</time>
      </trkpt>
      <trkpt lat="47.95714" lon="6.9276">
        <ele>1181</ele>
        <time>2015-02-20T10:10:22Z</time>
      </trkpt>
      <trkpt lat="47.95721" lon="6.92765">
        <ele>1184</ele>
        <time>2015-02-20T10:10:32Z</time>
      </trkpt>
      <trkpt lat="47.95721" lon="6.92765">
        <ele>1185</ele>
        <time>2015-02-20T10:10:42Z</time>
      </trkpt>
      <trkpt lat="47.95721" lon="6.92765">
        <ele>1184</ele>
        <time>2015-02-20T10:10:54Z</time>
      </trkpt>
      <trkpt lat="47.9572" lon="6.92767">
        <ele>1181</ele>
        <time>2015-02-20T10:11:07Z</time>
      </trkpt>
      <trkpt lat="47.95721" lon="6.92767">
        <ele>1181</ele>
        <time>2015-02-20T10:11:18Z</time>
      </trkpt>
      <trkpt lat="47.95721" lon="6.92767">
        <ele>1186</ele>
        <time>2015-02-20T10:11:28Z</time>
      </trkpt>
      <trkpt lat="47.95723" lon="6.92764">
        <ele>1181</ele>
        <time>2015-02-20T10:11:38Z</time>
      </trkpt>
      <trkpt lat="47.95723" lon="6.92763">
        <ele>1182</ele>
        <time>2015-02-20T10:11:48Z</time>
      </trkpt>
      <trkpt lat="47.95725" lon="6.92753">
        <ele>1183</ele>
        <time>2015-02-20T10:11:58Z</time>
      </trkpt>
      <trkpt lat="47.95728" lon="6.92747">
        <ele>1182</ele>
        <time>2015-02-20T10:12:09Z</time>
      </trkpt>
      <trkpt lat="47.95735" lon="6.92737">
        <ele>1182</ele>
        <time>2015-02-20T10:12:19Z</time>
      </trkpt>
      <trkpt lat="47.95741" lon="6.92724">
        <ele>1184</ele>
        <time>2015-02-20T10:12:30Z</time>
      </trkpt>
      <trkpt lat="47.95747" lon="6.92714">
        <ele>1183</ele>
        <time>2015-02-20T10:12:40Z</time>
      </trkpt>
      <trkpt lat="47.95752" lon="6.92706">
        <ele>1185</ele>
        <time>2015-02-20T10:12:50Z</time>
      </trkpt>
      <trkpt lat="47.95758" lon="6.92696">
        <ele>1185</ele>
        <time>2015-02-20T10:13:01Z</time>
      </trkpt>
      <trkpt lat="47.95765" lon="6.92688">
        <ele>1187</ele>
        <time>2015-02-20T10:13:12Z</time>
      </trkpt>
      <trkpt lat="47.95772" lon="6.92679">
        <ele>1188</ele>
        <time>2015-02-20T10:13:23Z</time>
      </trkpt>
      <trkpt lat="47.95779" lon="6.92671">
        <ele>1188</ele>
        <time>2015-02-20T10:13:33Z</time>
      </trkpt>
      <trkpt lat="47.95789" lon="6.92666">
        <ele>1188</ele>
        <time>2015-02-20T10:13:44Z</time>
      </trkpt>
      <trkpt lat="47.95797" lon="6.92664">
        <ele>1189</ele>
        <time>2015-02-20T10:13:54Z</time>
      </trkpt>
      <trkpt lat="47.95805" lon="6.92662">
        <ele>1190</ele>
        <time>2015-02-20T10:14:04Z</time>
      </trkpt>
      <trkpt lat="47.95814" lon="6.92659">
        <ele>1192</ele>
        <time>2015-02-20T10:14:15Z</time>
      </trkpt>
      <trkpt lat="47.95822" lon="6.92658">
        <ele>1191</ele>
        <time>2015-02-20T10:14:25Z</time>
      </trkpt>
      <trkpt lat="47.9583" lon="6.92655">
        <ele>1192</ele>
        <time>2015-02-20T10:14:36Z</time>
      </trkpt>
      <trkpt lat="47.95837" lon="6.92655">
        <ele>1194</ele>
        <time>2015-02-20T10:14:46Z</time>
      </trkpt>
      <trkpt lat="47.95841" lon="6.92654">
        <ele>1194</ele>
        <time>2015-02-20T10:14:56Z</time>
      </trkpt>
      <trkpt lat="47.95851" lon="6.92651">
        <ele>1195</ele>
        <time>2015-02-20T10:15:07Z</time>
      </trkpt>
      <trkpt lat="47.9586" lon="6.92647">
        <ele>1196</ele>
        <time>2015-02-20T10:15:17Z</time>
      </trkpt>
      <trkpt lat="47.95867" lon="6.92646">
        <ele>1197</ele>
        <time>2015-02-20T10:15:27Z</time>
      </trkpt>
      <trkpt lat="47.95876" lon="6.92647">
        <ele>1197</ele>
        <time>2015-02-20T10:15:37Z</time>
      </trkpt>
      <trkpt lat="47.95884" lon="6.92643">
        <ele>1198</ele>
        <time>2015-02-20T10:15:48Z</time>
      </trkpt>
      <trkpt lat="47.95893" lon="6.92637">
        <ele>1198</ele>
        <time>2015-02-20T10:15:58Z</time>
      </trkpt>
      <trkpt lat="47.95901" lon="6.9263">
        <ele>1198</ele>
        <time>2015-02-20T10:16:08Z</time>
      </trkpt>
      <trkpt lat="47.95908" lon="6.92623">
        <ele>1199</ele>
        <time>2015-02-20T10:16:18Z</time>
      </trkpt>
      <trkpt lat="47.95914" lon="6.92613">
        <ele>1201</ele>
        <time>2015-02-20T10:16:29Z</time>
      </trkpt>
      <trkpt lat="47.95921" lon="6.92599">
        <ele>1202</ele>
        <time>2015-02-20T10:16:40Z</time>
      </trkpt>
      <trkpt lat="47.95925" lon="6.92585">
        <ele>1203</ele>
        <time>2015-02-20T10:16:50Z</time>
      </trkpt>
      <trkpt lat="47.9593" lon="6.92572">
        <ele>1203</ele>
        <time>2015-02-20T10:17:01Z</time>
      </trkpt>
      <trkpt lat="47.95937" lon="6.92558">
        <ele>1203</ele>
        <time>2015-02-20T10:17:12Z</time>
      </trkpt>
      <trkpt lat="47.9594" lon="6.92543">
        <ele>1204</ele>
        <time>2015-02-20T10:17:23Z</time>
      </trkpt>
      <trkpt lat="47.95943" lon="6.92536">
        <ele>1204</ele>
        <time>2015-02-20T10:17:34Z</time>
      </trkpt>
      <trkpt lat="47.95943" lon="6.92534">
        <ele>1205</ele>
        <time>2015-02-20T10:17:45Z</time>
      </trkpt>
      <trkpt lat="47.95942" lon="6.92535">
        <ele>1206</ele>
        <time>2015-02-20T10:17:55Z</time>
      </trkpt>
      <trkpt lat="47.95943" lon="6.92537">
        <ele>1206</ele>
        <time>2015-02-20T10:18:06Z</time>
      </trkpt>
      <trkpt lat="47.95943" lon="6.92538">
        <ele>1206</ele>
        <time>2015-02-20T10:18:16Z</time>
      </trkpt>
      <trkpt lat="47.95942" lon="6.92539">
        <ele>1206</ele>
        <time>2015-02-20T10:18:27Z</time>
      </trkpt>
      <trkpt lat="47.95941" lon="6.9254">
        <ele>1206</ele>
        <time>2015-02-20T10:18:38Z</time>
      </trkpt>
      <trkpt lat="47.95942" lon="6.9254">
        <ele>1207</ele>
        <time>2015-02-20T10:18:48Z</time>
      </trkpt>
      <trkpt lat="47.95942" lon="6.9254">
        <ele>1206</ele>
        <time>2015-02-20T10:18:58Z</time>
      </trkpt>
      <trkpt lat="47.95942" lon="6.9254">
        <ele>1207</ele>
        <time>2015-02-20T10:19:10Z</time>
      </trkpt>
      <trkpt lat="47.95943" lon="6.9254">
        <ele>1206</ele>
        <time>2015-02-20T10:19:20Z</time>
      </trkpt>
      <trkpt lat="47.95944" lon="6.9254">
        <ele>1206</ele>
        <time>2015-02-20T10:19:32Z</time>
      </trkpt>
      <trkpt lat="47.95945" lon="6.92539">
        <ele>1205</ele>
        <time>2015-02-20T10:19:43Z</time>
      </trkpt>
      <trkpt lat="47.95946" lon="6.92536">
        <ele>1204</ele>
        <time>2015-02-20T10:19:54Z</time>
      </trkpt>
      <trkpt lat="47.95947" lon="6.92535">
        <ele>1204</ele>
        <time>2015-02-20T10:20:04Z</time>
      </trkpt>
      <trkpt lat="47.95946" lon="6.92535">
        <ele>1205</ele>
        <time>2015-02-20T10:20:15Z</time>
      </trkpt>
      <trkpt lat="47.95946" lon="6.92536">
        <ele>1205</ele>
        <time>2015-02-20T10:20:25Z</time>
      </trkpt>
      <trkpt lat="47.95946" lon="6.92538">
        <ele>1206</ele>
        <time>2015-02-20T10:20:36Z</time>
      </trkpt>
      <trkpt lat="47.95946" lon="6.92539">
        <ele>1206</ele>
        <time>2015-02-20T10:20:47Z</time>
      </trkpt>
      <trkpt lat="47.95945" lon="6.92544">
        <ele>1206</ele>
        <time>2015-02-20T10:20:57Z</time>
      </trkpt>
      <trkpt lat="47.95942" lon="6.92548">
        <ele>1209</ele>
        <time>2015-02-20T10:21:08Z</time>
      </trkpt>
      <trkpt lat="47.9594" lon="6.92546">
        <ele>1207</ele>
        <time>2015-02-20T10:21:18Z</time>
      </trkpt>
      <trkpt lat="47.95939" lon="6.92545">
        <ele>1203</ele>
        <time>2015-02-20T10:21:28Z</time>
      </trkpt>
      <trkpt lat="47.95942" lon="6.92548">
        <ele>1206</ele>
        <time>2015-02-20T10:21:39Z</time>
      </trkpt>
      <trkpt lat="47.95947" lon="6.92548">
        <ele>1205</ele>
        <time>2015-02-20T10:21:49Z</time>
      </trkpt>
      <trkpt lat="47.95947" lon="6.92549">
        <ele>1206</ele>
        <time>2015-02-20T10:22:00Z</time>
      </trkpt>
      <trkpt lat="47.95952" lon="6.92549">
        <ele>1206</ele>
        <time>2015-02-20T10:22:11Z</time>
      </trkpt>
      <trkpt lat="47.9596" lon="6.92556">
        <ele>1206</ele>
        <time>2015-02-20T10:22:21Z</time>
      </trkpt>
      <trkpt lat="47.95969" lon="6.92561">
        <ele>1204</ele>
        <time>2015-02-20T10:22:32Z</time>
      </trkpt>
      <trkpt lat="47.95976" lon="6.92566">
        <ele>1203</ele>
        <time>2015-02-20T10:22:42Z</time>
      </trkpt>
      <trkpt lat="47.95987" lon="6.92568">
        <ele>1203</ele>
        <time>2015-02-20T10:22:53Z</time>
      </trkpt>
      <trkpt lat="47.95995" lon="6.92567">
        <ele>1203</ele>
        <time>2015-02-20T10:23:03Z</time>
      </trkpt>
      <trkpt lat="47.96005" lon="6.92569">
        <ele>1202</ele>
        <time>2015-02-20T10:23:14Z</time>
      </trkpt>
      <trkpt lat="47.96017" lon="6.92569">
        <ele>1200</ele>
        <time>2015-02-20T10:23:24Z</time>
      </trkpt>
      <trkpt lat="47.96028" lon="6.92571">
        <ele>1199</ele>
        <time>2015-02-20T10:23:35Z</time>
      </trkpt>
      <trkpt lat="47.96035" lon="6.92569">
        <ele>1198</ele>
        <time>2015-02-20T10:23:45Z</time>
      </trkpt>
      <trkpt lat="47.96042" lon="6.92568">
        <ele>1195</ele>
        <time>2015-02-20T10:23:56Z</time>
      </trkpt>
      <trkpt lat="47.96047" lon="6.92566">
        <ele>1193</ele>
        <time>2015-02-20T10:24:06Z</time>
      </trkpt>
      <trkpt lat="47.96052" lon="6.92568">
        <ele>1191</ele>
        <time>2015-02-20T10:24:17Z</time>
      </trkpt>
      <trkpt lat="47.96055" lon="6.92576">
        <ele>1189</ele>
        <time>2015-02-20T10:24:27Z</time>
      </trkpt>
      <trkpt lat="47.96062" lon="6.92594">
        <ele>1186</ele>
        <time>2015-02-20T10:24:38Z</time>
      </trkpt>
      <trkpt lat="47.9607" lon="6.92612">
        <ele>1184</ele>
        <time>2015-02-20T10:24:49Z</time>
      </trkpt>
      <trkpt lat="47.96075" lon="6.92625">
        <ele>1183</ele>
        <time>2015-02-20T10:25:00Z</time>
      </trkpt>
      <trkpt lat="47.9608" lon="6.92632">
        <ele>1182</ele>
        <time>2015-02-20T10:25:10Z</time>
      </trkpt>
      <trkpt lat="47.96086" lon="6.92641">
        <ele>1179</ele>
        <time>2015-02-20T10:25:21Z</time>
      </trkpt>
      <trkpt lat="47.96093" lon="6.92651">
        <ele>1179</ele>
        <time>2015-02-20T10:25:32Z</time>
      </trkpt>
      <trkpt lat="47.96098" lon="6.92659">
        <ele>1178</ele>
        <time>2015-02-20T10:25:42Z</time>
      </trkpt>
      <trkpt lat="47.96103" lon="6.92667">
        <ele>1177</ele>
        <time>2015-02-20T10:25:53Z</time>
      </trkpt>
      <trkpt lat="47.96107" lon="6.92673">
        <ele>1176</ele>
        <time>2015-02-20T10:26:03Z</time>
      </trkpt>
      <trkpt lat="47.96114" lon="6.92679">
        <ele>1175</ele>
        <time>2015-02-20T10:26:14Z</time>
      </trkpt>
      <trkpt lat="47.9612" lon="6.92686">
        <ele>1173</ele>
        <time>2015-02-20T10:26:24Z</time>
      </trkpt>
      <trkpt lat="47.96125" lon="6.92692">
        <ele>1172</ele>
        <time>2015-02-20T10:26:35Z</time>
      </trkpt>
      <trkpt lat="47.96124" lon="6.927">
        <ele>1171</ele>
        <time>2015-02-20T10:26:46Z</time>
      </trkpt>
      <trkpt lat="47.96124" lon="6.92705">
        <ele>1171</ele>
        <time>2015-02-20T10:26:56Z</time>
      </trkpt>
      <trkpt lat="47.96126" lon="6.92713">
        <ele>1170</ele>
        <time>2015-02-20T10:27:06Z</time>
      </trkpt>
      <trkpt lat="47.96126" lon="6.92726">
        <ele>1169</ele>
        <time>2015-02-20T10:27:17Z</time>
      </trkpt>
      <trkpt lat="47.96127" lon="6.9274">
        <ele>1167</ele>
        <time>2015-02-20T10:27:28Z</time>
      </trkpt>
      <trkpt lat="47.96131" lon="6.92753">
        <ele>1167</ele>
        <time>2015-02-20T10:27:39Z</time>
      </trkpt>
      <trkpt lat="47.96136" lon="6.92761">
        <ele>1166</ele>
        <time>2015-02-20T10:27:49Z</time>
      </trkpt>
      <trkpt lat="47.96144" lon="6.92769">
        <ele>1165</ele>
        <time>2015-02-20T10:28:00Z</time>
      </trkpt>
      <trkpt lat="47.96151" lon="6.92779">
        <ele>1165</ele>
        <time>2015-02-20T10:28:11Z</time>
      </trkpt>
      <trkpt lat="47.96156" lon="6.92787">
        <ele>1166</ele>
        <time>2015-02-20T10:28:21Z</time>
      </trkpt>
      <trkpt lat="47.96162" lon="6.92797">
        <ele>1167</ele>
        <time>2015-02-20T10:28:32Z</time>
      </trkpt>
      <trkpt lat="47.96166" lon="6.92806">
        <ele>1166</ele>
        <time>2015-02-20T10:28:42Z</time>
      </trkpt>
      <trkpt lat="47.96171" lon="6.92816">
        <ele>1165</ele>
        <time>2015-02-20T10:28:52Z</time>
      </trkpt>
      <trkpt lat="47.96177" lon="6.92823">
        <ele>1164</ele>
        <time>2015-02-20T10:29:02Z</time>
      </trkpt>
      <trkpt lat="47.96181" lon="6.92833">
        <ele>1163</ele>
        <time>2015-02-20T10:29:13Z</time>
      </trkpt>
      <trkpt lat="47.96183" lon="6.92842">
        <ele>1161</ele>
        <time>2015-02-20T10:29:24Z</time>
      </trkpt>
      <trkpt lat="47.96185" lon="6.92848">
        <ele>1161</ele>
        <time>2015-02-20T10:29:34Z</time>
      </trkpt>
      <trkpt lat="47.96186" lon="6.9285">
        <ele>1161</ele>
        <time>2015-02-20T10:29:46Z</time>
      </trkpt>
      <trkpt lat="47.96187" lon="6.92851">
        <ele>1161</ele>
        <time>2015-02-20T10:29:57Z</time>
      </trkpt>
      <trkpt lat="47.9619" lon="6.92854">
        <ele>1161</ele>
        <time>2015-02-20T10:30:09Z</time>
      </trkpt>
      <trkpt lat="47.96194" lon="6.92857">
        <ele>1161</ele>
        <time>2015-02-20T10:30:20Z</time>
      </trkpt>
      <trkpt lat="47.962" lon="6.92851">
        <ele>1160</ele>
        <time>2015-02-20T10:30:30Z</time>
      </trkpt>
      <trkpt lat="47.96207" lon="6.92847">
        <ele>1158</ele>
        <time>2015-02-20T10:30:40Z</time>
      </trkpt>
      <trkpt lat="47.96213" lon="6.92839">
        <ele>1157</ele>
        <time>2015-02-20T10:30:51Z</time>
      </trkpt>
      <trkpt lat="47.9622" lon="6.92831">
        <ele>1157</ele>
        <time>2015-02-20T10:31:02Z</time>
      </trkpt>
      <trkpt lat="47.96227" lon="6.92824">
        <ele>1156</ele>
        <time>2015-02-20T10:31:13Z</time>
      </trkpt>
      <trkpt lat="47.96233" lon="6.9282">
        <ele>1156</ele>
        <time>2015-02-20T10:31:24Z</time>
      </trkpt>
      <trkpt lat="47.96238" lon="6.92816">
        <ele>1154</ele>
        <time>2015-02-20T10:31:34Z</time>
      </trkpt>
      <trkpt lat="47.96244" lon="6.92817">
        <ele>1151</ele>
        <time>2015-02-20T10:31:45Z</time>
      </trkpt>
      <trkpt lat="47.96251" lon="6.92821">
        <ele>1149</ele>
        <time>2015-02-20T10:31:55Z</time>
      </trkpt>
      <trkpt lat="47.96258" lon="6.92828">
        <ele>1147</ele>
        <time>2015-02-20T10:32:06Z</time>
      </trkpt>
      <trkpt lat="47.96267" lon="6.92828">
        <ele>1145</ele>
        <time>2015-02-20T10:32:17Z</time>
      </trkpt>
      <trkpt lat="47.96275" lon="6.92821">
        <ele>1142</ele>
        <time>2015-02-20T10:32:28Z</time>
      </trkpt>
      <trkpt lat="47.96282" lon="6.92812">
        <ele>1141</ele>
        <time>2015-02-20T10:32:38Z</time>
      </trkpt>
      <trkpt lat="47.96292" lon="6.92804">
        <ele>1139</ele>
        <time>2015-02-20T10:32:49Z</time>
      </trkpt>
      <trkpt lat="47.96299" lon="6.92808">
        <ele>1138</ele>
        <time>2015-02-20T10:33:00Z</time>
      </trkpt>
      <trkpt lat="47.96307" lon="6.92818">
        <ele>1137</ele>
        <time>2015-02-20T10:33:10Z</time>
      </trkpt>
      <trkpt lat="47.96317" lon="6.92831">
        <ele>1136</ele>
        <time>2015-02-20T10:33:20Z</time>
      </trkpt>
      <trkpt lat="47.96323" lon="6.92847">
        <ele>1135</ele>
        <time>2015-02-20T10:33:31Z</time>
      </trkpt>
      <trkpt lat="47.96328" lon="6.92862">
        <ele>1134</ele>
        <time>2015-02-20T10:33:41Z</time>
      </trkpt>
      <trkpt lat="47.96333" lon="6.92875">
        <ele>1133</ele>
        <time>2015-02-20T10:33:52Z</time>
      </trkpt>
      <trkpt lat="47.96337" lon="6.92885">
        <ele>1132</ele>
        <time>2015-02-20T10:34:02Z</time>
      </trkpt>
      <trkpt lat="47.96341" lon="6.92899">
        <ele>1130</ele>
        <time>2015-02-20T10:34:13Z</time>
      </trkpt>
      <trkpt lat="47.96346" lon="6.92907">
        <ele>1128</ele>
        <time>2015-02-20T10:34:24Z</time>
      </trkpt>
      <trkpt lat="47.96351" lon="6.9291">
        <ele>1129</ele>
        <time>2015-02-20T10:34:35Z</time>
      </trkpt>
      <trkpt lat="47.96356" lon="6.92912">
        <ele>1129</ele>
        <time>2015-02-20T10:34:45Z</time>
      </trkpt>
      <trkpt lat="47.96362" lon="6.9291">
        <ele>1129</ele>
        <time>2015-02-20T10:34:55Z</time>
      </trkpt>
      <trkpt lat="47.9637" lon="6.92905">
        <ele>1128</ele>
        <time>2015-02-20T10:35:06Z</time>
      </trkpt>
      <trkpt lat="47.96376" lon="6.929">
        <ele>1126</ele>
        <time>2015-02-20T10:35:17Z</time>
      </trkpt>
      <trkpt lat="47.96382" lon="6.92898">
        <ele>1124</ele>
        <time>2015-02-20T10:35:27Z</time>
      </trkpt>
      <trkpt lat="47.96387" lon="6.92892">
        <ele>1122</ele>
        <time>2015-02-20T10:35:38Z</time>
      </trkpt>
      <trkpt lat="47.96397" lon="6.9289">
        <ele>1122</ele>
        <time>2015-02-20T10:35:48Z</time>
      </trkpt>
      <trkpt lat="47.96406" lon="6.92893">
        <ele>1120</ele>
        <time>2015-02-20T10:35:59Z</time>
      </trkpt>
      <trkpt lat="47.96413" lon="6.92889">
        <ele>1121</ele>
        <time>2015-02-20T10:36:09Z</time>
      </trkpt>
      <trkpt lat="47.96421" lon="6.92884">
        <ele>1122</ele>
        <time>2015-02-20T10:36:19Z</time>
      </trkpt>
      <trkpt lat="47.96428" lon="6.92879">
        <ele>1122</ele>
        <time>2015-02-20T10:36:29Z</time>
      </trkpt>
      <trkpt lat="47.96436" lon="6.92883">
        <ele>1121</ele>
        <time>2015-02-20T10:36:40Z</time>
      </trkpt>
      <trkpt lat="47.96443" lon="6.92888">
        <ele>1121</ele>
        <time>2015-02-20T10:36:50Z</time>
      </trkpt>
      <trkpt lat="47.9645" lon="6.92888">
        <ele>1120</ele>
        <time>2015-02-20T10:37:00Z</time>
      </trkpt>
      <trkpt lat="47.9646" lon="6.9289">
        <ele>1119</ele>
        <time>2015-02-20T10:37:11Z</time>
      </trkpt>
      <trkpt lat="47.96469" lon="6.92891">
        <ele>1119</ele>
        <time>2015-02-20T10:37:21Z</time>
      </trkpt>
      <trkpt lat="47.96478" lon="6.92891">
        <ele>1119</ele>
        <time>2015-02-20T10:37:32Z</time>
      </trkpt>
      <trkpt lat="47.96485" lon="6.92896">
        <ele>1118</ele>
        <time>2015-02-20T10:37:43Z</time>
      </trkpt>
      <trkpt lat="47.96494" lon="6.92894">
        <ele>1118</ele>
        <time>2015-02-20T10:37:53Z</time>
      </trkpt>
      <trkpt lat="47.96503" lon="6.929">
        <ele>1117</ele>
        <time>2015-02-20T10:38:03Z</time>
      </trkpt>
      <trkpt lat="47.96511" lon="6.92894">
        <ele>1117</ele>
        <time>2015-02-20T10:38:13Z</time>
      </trkpt>
      <trkpt lat="47.96519" lon="6.92893">
        <ele>1116</ele>
        <time>2015-02-20T10:38:23Z</time>
      </trkpt>
      <trkpt lat="47.96526" lon="6.92885">
        <ele>1116</ele>
        <time>2015-02-20T10:38:34Z</time>
      </trkpt>
      <trkpt lat="47.96533" lon="6.92877">
        <ele>1116</ele>
        <time>2015-02-20T10:38:45Z</time>
      </trkpt>
      <trkpt lat="47.96538" lon="6.92868">
        <ele>1117</ele>
        <time>2015-02-20T10:38:55Z</time>
      </trkpt>
      <trkpt lat="47.96545" lon="6.92861">
        <ele>1116</ele>
        <time>2015-02-20T10:39:05Z</time>
      </trkpt>
      <trkpt lat="47.96555" lon="6.92854">
        <ele>1116</ele>
        <time>2015-02-20T10:39:16Z</time>
      </trkpt>
      <trkpt lat="47.96558" lon="6.92848">
        <ele>1116</ele>
        <time>2015-02-20T10:39:27Z</time>
      </trkpt>
      <trkpt lat="47.9656" lon="6.92842">
        <ele>1116</ele>
        <time>2015-02-20T10:39:38Z</time>
      </trkpt>
      <trkpt lat="47.96558" lon="6.9284">
        <ele>1116</ele>
        <time>2015-02-20T10:39:49Z</time>
      </trkpt>
      <trkpt lat="47.96558" lon="6.92838">
        <ele>1117</ele>
        <time>2015-02-20T10:40:00Z</time>
      </trkpt>
      <trkpt lat="47.96554" lon="6.92834">
        <ele>1118</ele>
        <time>2015-02-20T10:40:10Z</time>
      </trkpt>
      <trkpt lat="47.96552" lon="6.92838">
        <ele>1118</ele>
        <time>2015-02-20T10:40:21Z</time>
      </trkpt>
      <trkpt lat="47.96551" lon="6.92844">
        <ele>1118</ele>
        <time>2015-02-20T10:40:31Z</time>
      </trkpt>
      <trkpt lat="47.9655" lon="6.92845">
        <ele>1118</ele>
        <time>2015-02-20T10:40:43Z</time>
      </trkpt>
      <trkpt lat="47.9655" lon="6.92844">
        <ele>1118</ele>
        <time>2015-02-20T10:40:54Z</time>
      </trkpt>
      <trkpt lat="47.96552" lon="6.92845">
        <ele>1118</ele>
        <time>2015-02-20T10:41:05Z</time>
      </trkpt>
      <trkpt lat="47.9655" lon="6.92846">
        <ele>1118</ele>
        <time>2015-02-20T10:41:16Z</time>
      </trkpt>
      <trkpt lat="47.96555" lon="6.92846">
        <ele>1118</ele>
        <time>2015-02-20T10:41:27Z</time>
      </trkpt>
      <trkpt lat="47.96564" lon="6.92842">
        <ele>1118</ele>
        <time>2015-02-20T10:41:37Z</time>
      </trkpt>
      <trkpt lat="47.96569" lon="6.92832">
        <ele>1118</ele>
        <time>2015-02-20T10:41:47Z</time>
      </trkpt>
      <trkpt lat="47.96572" lon="6.92816">
        <ele>1119</ele>
        <time>2015-02-20T10:41:58Z</time>
      </trkpt>
      <trkpt lat="47.96574" lon="6.92803">
        <ele>1118</ele>
        <time>2015-02-20T10:42:09Z</time>
      </trkpt>
      <trkpt lat="47.96581" lon="6.9279">
        <ele>1118</ele>
        <time>2015-02-20T10:42:19Z</time>
      </trkpt>
      <trkpt lat="47.96587" lon="6.92775">
        <ele>1116</ele>
        <time>2015-02-20T10:42:30Z</time>
      </trkpt>
      <trkpt lat="47.9659" lon="6.92761">
        <ele>1116</ele>
        <time>2015-02-20T10:42:41Z</time>
      </trkpt>
      <trkpt lat="47.96591" lon="6.92748">
        <ele>1115</ele>
        <time>2015-02-20T10:42:51Z</time>
      </trkpt>
      <trkpt lat="47.96592" lon="6.92734">
        <ele>1113</ele>
        <time>2015-02-20T10:43:02Z</time>
      </trkpt>
      <trkpt lat="47.96593" lon="6.92716">
        <ele>1111</ele>
        <time>2015-02-20T10:43:13Z</time>
      </trkpt>
      <trkpt lat="47.96596" lon="6.92698">
        <ele>1109</ele>
        <time>2015-02-20T10:43:23Z</time>
      </trkpt>
      <trkpt lat="47.96597" lon="6.92678">
        <ele>1108</ele>
        <time>2015-02-20T10:43:33Z</time>
      </trkpt>
      <trkpt lat="47.96599" lon="6.92657">
        <ele>1106</ele>
        <time>2015-02-20T10:43:43Z</time>
      </trkpt>
      <trkpt lat="47.96598" lon="6.92635">
        <ele>1104</ele>
        <time>2015-02-20T10:43:54Z</time>
      </trkpt>
      <trkpt lat="47.96596" lon="6.92616">
        <ele>1102</ele>
        <time>2015-02-20T10:44:05Z</time>
      </trkpt>
      <trkpt lat="47.96596" lon="6.92596">
        <ele>1101</ele>
        <time>2015-02-20T10:44:16Z</time>
      </trkpt>
      <trkpt lat="47.96595" lon="6.9258">
        <ele>1098</ele>
        <time>2015-02-20T10:44:27Z</time>
      </trkpt>
      <trkpt lat="47.96591" lon="6.92563">
        <ele>1096</ele>
        <time>2015-02-20T10:44:38Z</time>
      </trkpt>
      <trkpt lat="47.96587" lon="6.92552">
        <ele>1094</ele>
        <time>2015-02-20T10:44:48Z</time>
      </trkpt>
      <trkpt lat="47.96587" lon="6.92542">
        <ele>1093</ele>
        <time>2015-02-20T10:44:58Z</time>
      </trkpt>
      <trkpt lat="47.96585" lon="6.92532">
        <ele>1092</ele>
        <time>2015-02-20T10:45:09Z</time>
      </trkpt>
      <trkpt lat="47.96584" lon="6.92521">
        <ele>1091</ele>
        <time>2015-02-20T10:45:20Z</time>
      </trkpt>
      <trkpt lat="47.96586" lon="6.92515">
        <ele>1090</ele>
        <time>2015-02-20T10:45:31Z</time>
      </trkpt>
      <trkpt lat="47.96585" lon="6.92509">
        <ele>1089</ele>
        <time>2015-02-20T10:45:41Z</time>
      </trkpt>
      <trkpt lat="47.96586" lon="6.92506">
        <ele>1090</ele>
        <time>2015-02-20T10:45:51Z</time>
      </trkpt>
      <trkpt lat="47.96585" lon="6.92503">
        <ele>1089</ele>
        <time>2015-02-20T10:46:02Z</time>
      </trkpt>
      <trkpt lat="47.96584" lon="6.92503">
        <ele>1090</ele>
        <time>2015-02-20T10:46:13Z</time>
      </trkpt>
      <trkpt lat="47.96584" lon="6.92505">
        <ele>1090</ele>
        <time>2015-02-20T10:46:23Z</time>
      </trkpt>
      <trkpt lat="47.96582" lon="6.92507">
        <ele>1090</ele>
        <time>2015-02-20T10:46:33Z</time>
      </trkpt>
      <trkpt lat="47.96575" lon="6.92509">
        <ele>1090</ele>
        <time>2015-02-20T10:46:44Z</time>
      </trkpt>
      <trkpt lat="47.96567" lon="6.92512">
        <ele>1091</ele>
        <time>2015-02-20T10:46:55Z</time>
      </trkpt>
      <trkpt lat="47.96558" lon="6.92514">
        <ele>1093</ele>
        <time>2015-02-20T10:47:06Z</time>
      </trkpt>
      <trkpt lat="47.96547" lon="6.92513">
        <ele>1093</ele>
        <time>2015-02-20T10:47:17Z</time>
      </trkpt>
      <trkpt lat="47.96537" lon="6.9251">
        <ele>1095</ele>
        <time>2015-02-20T10:47:27Z</time>
      </trkpt>
      <trkpt lat="47.96527" lon="6.92513">
        <ele>1096</ele>
        <time>2015-02-20T10:47:38Z</time>
      </trkpt>
      <trkpt lat="47.96517" lon="6.92514">
        <ele>1097</ele>
        <time>2015-02-20T10:47:48Z</time>
      </trkpt>
      <trkpt lat="47.96506" lon="6.92516">
        <ele>1098</ele>
        <time>2015-02-20T10:47:59Z</time>
      </trkpt>
      <trkpt lat="47.96497" lon="6.92512">
        <ele>1099</ele>
        <time>2015-02-20T10:48:09Z</time>
      </trkpt>
      <trkpt lat="47.96487" lon="6.92504">
        <ele>1100</ele>
        <time>2015-02-20T10:48:20Z</time>
      </trkpt>
      <trkpt lat="47.96479" lon="6.92496">
        <ele>1101</ele>
        <time>2015-02-20T10:48:30Z</time>
      </trkpt>
      <trkpt lat="47.96471" lon="6.92488">
        <ele>1102</ele>
        <time>2015-02-20T10:48:40Z</time>
      </trkpt>
      <trkpt lat="47.96465" lon="6.9248">
        <ele>1103</ele>
        <time>2015-02-20T10:48:50Z</time>
      </trkpt>
      <trkpt lat="47.96455" lon="6.92473">
        <ele>1103</ele>
        <time>2015-02-20T10:49:01Z</time>
      </trkpt>
      <trkpt lat="47.96449" lon="6.92464">
        <ele>1103</ele>
        <time>2015-02-20T10:49:11Z</time>
      </trkpt>
      <trkpt lat="47.96441" lon="6.92456">
        <ele>1105</ele>
        <time>2015-02-20T10:49:21Z</time>
      </trkpt>
      <trkpt lat="47.96431" lon="6.92455">
        <ele>1105</ele>
        <time>2015-02-20T10:49:32Z</time>
      </trkpt>
      <trkpt lat="47.96423" lon="6.92456">
        <ele>1106</ele>
        <time>2015-02-20T10:49:43Z</time>
      </trkpt>
      <trkpt lat="47.96415" lon="6.92454">
        <ele>1107</ele>
        <time>2015-02-20T10:49:53Z</time>
      </trkpt>
      <trkpt lat="47.96407" lon="6.9245">
        <ele>1108</ele>
        <time>2015-02-20T10:50:04Z</time>
      </trkpt>
      <trkpt lat="47.96402" lon="6.92444">
        <ele>1108</ele>
        <time>2015-02-20T10:50:15Z</time>
      </trkpt>
      <trkpt lat="47.96394" lon="6.92436">
        <ele>1109</ele>
        <time>2015-02-20T10:50:26Z</time>
      </trkpt>
      <trkpt lat="47.96386" lon="6.9243">
        <ele>1110</ele>
        <time>2015-02-20T10:50:36Z</time>
      </trkpt>
      <trkpt lat="47.96379" lon="6.92427">
        <ele>1110</ele>
        <time>2015-02-20T10:50:46Z</time>
      </trkpt>
      <trkpt lat="47.96372" lon="6.92418">
        <ele>1113</ele>
        <time>2015-02-20T10:50:57Z</time>
      </trkpt>
      <trkpt lat="47.96365" lon="6.92408">
        <ele>1113</ele>
        <time>2015-02-20T10:51:08Z</time>
      </trkpt>
      <trkpt lat="47.96362" lon="6.92398">
        <ele>1114</ele>
        <time>2015-02-20T10:51:18Z</time>
      </trkpt>
      <trkpt lat="47.96357" lon="6.92386">
        <ele>1115</ele>
        <time>2015-02-20T10:51:28Z</time>
      </trkpt>
      <trkpt lat="47.9635" lon="6.92373">
        <ele>1116</ele>
        <time>2015-02-20T10:51:39Z</time>
      </trkpt>
      <trkpt lat="47.96344" lon="6.92358">
        <ele>1117</ele>
        <time>2015-02-20T10:51:50Z</time>
      </trkpt>
      <trkpt lat="47.9634" lon="6.92344">
        <ele>1117</ele>
        <time>2015-02-20T10:52:01Z</time>
      </trkpt>
      <trkpt lat="47.96336" lon="6.92331">
        <ele>1118</ele>
        <time>2015-02-20T10:52:11Z</time>
      </trkpt>
      <trkpt lat="47.96331" lon="6.92316">
        <ele>1119</ele>
        <time>2015-02-20T10:52:22Z</time>
      </trkpt>
      <trkpt lat="47.96329" lon="6.92303">
        <ele>1120</ele>
        <time>2015-02-20T10:52:33Z</time>
      </trkpt>
      <trkpt lat="47.96327" lon="6.92286">
        <ele>1121</ele>
        <time>2015-02-20T10:52:44Z</time>
      </trkpt>
      <trkpt lat="47.96323" lon="6.92272">
        <ele>1122</ele>
        <time>2015-02-20T10:52:54Z</time>
      </trkpt>
      <trkpt lat="47.96317" lon="6.92261">
        <ele>1123</ele>
        <time>2015-02-20T10:53:04Z</time>
      </trkpt>
      <trkpt lat="47.96309" lon="6.92251">
        <ele>1123</ele>
        <time>2015-02-20T10:53:15Z</time>
      </trkpt>
      <trkpt lat="47.96302" lon="6.92241">
        <ele>1125</ele>
        <time>2015-02-20T10:53:26Z</time>
      </trkpt>
      <trkpt lat="47.96292" lon="6.92235">
        <ele>1126</ele>
        <time>2015-02-20T10:53:37Z</time>
      </trkpt>
      <trkpt lat="47.96284" lon="6.92238">
        <ele>1126</ele>
        <time>2015-02-20T10:53:48Z</time>
      </trkpt>
      <trkpt lat="47.96276" lon="6.92238">
        <ele>1127</ele>
        <time>2015-02-20T10:53:58Z</time>
      </trkpt>
      <trkpt lat="47.96267" lon="6.92235">
        <ele>1128</ele>
        <time>2015-02-20T10:54:09Z</time>
      </trkpt>
      <trkpt lat="47.96257" lon="6.92235">
        <ele>1129</ele>
        <time>2015-02-20T10:54:20Z</time>
      </trkpt>
      <trkpt lat="47.96247" lon="6.92233">
        <ele>1129</ele>
        <time>2015-02-20T10:54:31Z</time>
      </trkpt>
      <trkpt lat="47.96237" lon="6.92232">
        <ele>1130</ele>
        <time>2015-02-20T10:54:42Z</time>
      </trkpt>
      <trkpt lat="47.96228" lon="6.92229">
        <ele>1131</ele>
        <time>2015-02-20T10:54:53Z</time>
      </trkpt>
      <trkpt lat="47.9622" lon="6.92224">
        <ele>1132</ele>
        <time>2015-02-20T10:55:03Z</time>
      </trkpt>
      <trkpt lat="47.9621" lon="6.92219">
        <ele>1133</ele>
        <time>2015-02-20T10:55:14Z</time>
      </trkpt>
      <trkpt lat="47.96199" lon="6.92215">
        <ele>1134</ele>
        <time>2015-02-20T10:55:25Z</time>
      </trkpt>
      <trkpt lat="47.96189" lon="6.92212">
        <ele>1135</ele>
        <time>2015-02-20T10:55:36Z</time>
      </trkpt>
      <trkpt lat="47.96179" lon="6.92212">
        <ele>1137</ele>
        <time>2015-02-20T10:55:47Z</time>
      </trkpt>
      <trkpt lat="47.9617" lon="6.92209">
        <ele>1137</ele>
        <time>2015-02-20T10:55:57Z</time>
      </trkpt>
      <trkpt lat="47.96161" lon="6.92208">
        <ele>1138</ele>
        <time>2015-02-20T10:56:07Z</time>
      </trkpt>
      <trkpt lat="47.96153" lon="6.92207">
        <ele>1139</ele>
        <time>2015-02-20T10:56:17Z</time>
      </trkpt>
      <trkpt lat="47.96144" lon="6.92203">
        <ele>1140</ele>
        <time>2015-02-20T10:56:28Z</time>
      </trkpt>
      <trkpt lat="47.96134" lon="6.92201">
        <ele>1141</ele>
        <time>2015-02-20T10:56:39Z</time>
      </trkpt>
      <trkpt lat="47.96123" lon="6.92198">
        <ele>1143</ele>
        <time>2015-02-20T10:56:50Z</time>
      </trkpt>
      <trkpt lat="47.96114" lon="6.92194">
        <ele>1143</ele>
        <time>2015-02-20T10:57:00Z</time>
      </trkpt>
      <trkpt lat="47.96103" lon="6.92191">
        <ele>1145</ele>
        <time>2015-02-20T10:57:11Z</time>
      </trkpt>
      <trkpt lat="47.96095" lon="6.92188">
        <ele>1146</ele>
        <time>2015-02-20T10:57:21Z</time>
      </trkpt>
      <trkpt lat="47.96085" lon="6.92182">
        <ele>1147</ele>
        <time>2015-02-20T10:57:32Z</time>
      </trkpt>
      <trkpt lat="47.96076" lon="6.92177">
        <ele>1149</ele>
        <time>2015-02-20T10:57:43Z</time>
      </trkpt>
      <trkpt lat="47.96066" lon="6.92172">
        <ele>1151</ele>
        <time>2015-02-20T10:57:53Z</time>
      </trkpt>
      <trkpt lat="47.96056" lon="6.92164">
        <ele>1152</ele>
        <time>2015-02-20T10:58:04Z</time>
      </trkpt>
      <trkpt lat="47.96047" lon="6.92154">
        <ele>1151</ele>
        <time>2015-02-20T10:58:14Z</time>
      </trkpt>
      <trkpt lat="47.96038" lon="6.92144">
        <ele>1151</ele>
        <time>2015-02-20T10:58:24Z</time>
      </trkpt>
      <trkpt lat="47.9603" lon="6.92135">
        <ele>1150</ele>
        <time>2015-02-20T10:58:35Z</time>
      </trkpt>
      <trkpt lat="47.96022" lon="6.92126">
        <ele>1151</ele>
        <time>2015-02-20T10:58:45Z</time>
      </trkpt>
      <trkpt lat="47.96013" lon="6.92116">
        <ele>1151</ele>
        <time>2015-02-20T10:58:56Z</time>
      </trkpt>
      <trkpt lat="47.96004" lon="6.92108">
        <ele>1151</ele>
        <time>2015-02-20T10:59:07Z</time>
      </trkpt>
      <trkpt lat="47.95995" lon="6.92101">
        <ele>1150</ele>
        <time>2015-02-20T10:59:18Z</time>
      </trkpt>
      <trkpt lat="47.95985" lon="6.92094">
        <ele>1150</ele>
        <time>2015-02-20T10:59:29Z</time>
      </trkpt>
      <trkpt lat="47.95979" lon="6.92088">
        <ele>1149</ele>
        <time>2015-02-20T10:59:39Z</time>
      </trkpt>
      <trkpt lat="47.9598" lon="6.92079">
        <ele>1148</ele>
        <time>2015-02-20T10:59:50Z</time>
      </trkpt>
      <trkpt lat="47.9599" lon="6.92079">
        <ele>1148</ele>
        <time>2015-02-20T11:00:00Z</time>
      </trkpt>
      <trkpt lat="47.95994" lon="6.92082">
        <ele>1148</ele>
        <time>2015-02-20T11:00:10Z</time>
      </trkpt>
      <trkpt lat="47.95996" lon="6.92076">
        <ele>1147</ele>
        <time>2015-02-20T11:00:21Z</time>
      </trkpt>
      <trkpt lat="47.96" lon="6.92071">
        <ele>1147</ele>
        <time>2015-02-20T11:00:31Z</time>
      </trkpt>
      <trkpt lat="47.95999" lon="6.9207">
        <ele>1147</ele>
        <time>2015-02-20T11:00:44Z</time>
      </trkpt>
      <trkpt lat="47.96" lon="6.9207">
        <ele>1147</ele>
        <time>2015-02-20T11:00:55Z</time>
      </trkpt>
      <trkpt lat="47.96001" lon="6.92071">
        <ele>1146</ele>
        <time>2015-02-20T11:01:05Z</time>
      </trkpt>
      <trkpt lat="47.96001" lon="6.92072">
        <ele>1146</ele>
        <time>2015-02-20T11:01:15Z</time>
      </trkpt>
      <trkpt lat="47.96" lon="6.92073">
        <ele>1147</ele>
        <time>2015-02-20T11:01:16Z</time>
      </trkpt>
      <trkpt lat="47.95964" lon="6.92077">
        <ele>1147.79248</ele>
        <time>2015-02-20T13:57:02Z</time>
      </trkpt>
      <trkpt lat="47.96032" lon="6.91986">
        <ele>1126.767822</ele>
        <time>2015-02-20T13:57:12Z</time>
      </trkpt>
      <trkpt lat="47.96052" lon="6.9187">
        <ele>1106.684692</ele>
        <time>2015-02-20T13:57:22Z</time>
      </trkpt>
      <trkpt lat="47.96066" lon="6.91769">
        <ele>1091.835693</ele>
        <time>2015-02-20T13:57:33Z</time>
      </trkpt>
      <trkpt lat="47.96076" lon="6.91688">
        <ele>1091.68689</ele>
        <time>2015-02-20T13:57:44Z</time>
      </trkpt>
      <trkpt lat="47.96102" lon="6.91593">
        <ele>1099.206543</ele>
        <time>2015-02-20T13:57:54Z</time>
      </trkpt>
      <trkpt lat="47.96144" lon="6.91508">
        <ele>1100.967651</ele>
        <time>2015-02-20T13:58:04Z</time>
      </trkpt>
      <trkpt lat="47.96167" lon="6.91443">
        <ele>1102.654785</ele>
        <time>2015-02-20T13:58:15Z</time>
      </trkpt>
      <trkpt lat="47.96183" lon="6.91371">
        <ele>1147</ele>
        <time>2015-02-20T13:58:26Z</time>
      </trkpt>
      <trkpt lat="47.96188" lon="6.91355">
        <ele>1146</ele>
        <time>2015-02-20T13:58:37Z</time>
      </trkpt>
      <trkpt lat="47.9619" lon="6.91338">
        <ele>1145</ele>
        <time>2015-02-20T13:58:48Z</time>
      </trkpt>
      <trkpt lat="47.9619" lon="6.91323">
        <ele>1145</ele>
        <time>2015-02-20T13:58:58Z</time>
      </trkpt>
      <trkpt lat="47.96189" lon="6.91309">
        <ele>1145</ele>
        <time>2015-02-20T13:59:09Z</time>
      </trkpt>
      <trkpt lat="47.96189" lon="6.91294">
        <ele>1144</ele>
        <time>2015-02-20T13:59:19Z</time>
      </trkpt>
      <trkpt lat="47.96191" lon="6.9128">
        <ele>1144</ele>
        <time>2015-02-20T13:59:29Z</time>
      </trkpt>
      <trkpt lat="47.96191" lon="6.91269">
        <ele>1144</ele>
        <time>2015-02-20T13:59:39Z</time>
      </trkpt>
      <trkpt lat="47.96189" lon="6.91256">
        <ele>1143</ele>
        <time>2015-02-20T13:59:49Z</time>
      </trkpt>
      <trkpt lat="47.96184" lon="6.91239">
        <ele>1144</ele>
        <time>2015-02-20T14:00:00Z</time>
      </trkpt>
      <trkpt lat="47.96182" lon="6.9122">
        <ele>1143</ele>
        <time>2015-02-20T14:00:11Z</time>
      </trkpt>
      <trkpt lat="47.96183" lon="6.91204">
        <ele>1143</ele>
        <time>2015-02-20T14:00:21Z</time>
      </trkpt>
      <trkpt lat="47.96181" lon="6.91186">
        <ele>1141</ele>
        <time>2015-02-20T14:00:32Z</time>
      </trkpt>
      <trkpt lat="47.96182" lon="6.91169">
        <ele>1140</ele>
        <time>2015-02-20T14:00:42Z</time>
      </trkpt>
      <trkpt lat="47.96177" lon="6.91149">
        <ele>1140</ele>
        <time>2015-02-20T14:00:53Z</time>
      </trkpt>
      <trkpt lat="47.96175" lon="6.9113">
        <ele>1140</ele>
        <time>2015-02-20T14:01:04Z</time>
      </trkpt>
      <trkpt lat="47.96175" lon="6.91114">
        <ele>1139</ele>
        <time>2015-02-20T14:01:14Z</time>
      </trkpt>
      <trkpt lat="47.96175" lon="6.91099">
        <ele>1138</ele>
        <time>2015-02-20T14:01:24Z</time>
      </trkpt>
      <trkpt lat="47.96172" lon="6.91081">
        <ele>1138</ele>
        <time>2015-02-20T14:01:35Z</time>
      </trkpt>
      <trkpt lat="47.9617" lon="6.91068">
        <ele>1137</ele>
        <time>2015-02-20T14:01:45Z</time>
      </trkpt>
      <trkpt lat="47.96167" lon="6.91051">
        <ele>1137</ele>
        <time>2015-02-20T14:01:55Z</time>
      </trkpt>
      <trkpt lat="47.96166" lon="6.91035">
        <ele>1136</ele>
        <time>2015-02-20T14:02:06Z</time>
      </trkpt>
      <trkpt lat="47.96163" lon="6.91019">
        <ele>1136</ele>
        <time>2015-02-20T14:02:17Z</time>
      </trkpt>
      <trkpt lat="47.9616" lon="6.91005">
        <ele>1135</ele>
        <time>2015-02-20T14:02:27Z</time>
      </trkpt>
      <trkpt lat="47.96154" lon="6.90987">
        <ele>1135</ele>
        <time>2015-02-20T14:02:38Z</time>
      </trkpt>
      <trkpt lat="47.9615" lon="6.90974">
        <ele>1134</ele>
        <time>2015-02-20T14:02:48Z</time>
      </trkpt>
      <trkpt lat="47.96146" lon="6.90961">
        <ele>1134</ele>
        <time>2015-02-20T14:02:58Z</time>
      </trkpt>
      <trkpt lat="47.96143" lon="6.90945">
        <ele>1133</ele>
        <time>2015-02-20T14:03:09Z</time>
      </trkpt>
      <trkpt lat="47.96141" lon="6.90935">
        <ele>1133</ele>
        <time>2015-02-20T14:03:20Z</time>
      </trkpt>
      <trkpt lat="47.96138" lon="6.90916">
        <ele>1133</ele>
        <time>2015-02-20T14:03:30Z</time>
      </trkpt>
      <trkpt lat="47.96135" lon="6.90904">
        <ele>1132</ele>
        <time>2015-02-20T14:03:40Z</time>
      </trkpt>
      <trkpt lat="47.96135" lon="6.90902">
        <ele>1131</ele>
        <time>2015-02-20T14:03:50Z</time>
      </trkpt>
      <trkpt lat="47.96132" lon="6.90894">
        <ele>1130</ele>
        <time>2015-02-20T14:04:01Z</time>
      </trkpt>
      <trkpt lat="47.96128" lon="6.90881">
        <ele>1130</ele>
        <time>2015-02-20T14:04:11Z</time>
      </trkpt>
      <trkpt lat="47.96124" lon="6.90867">
        <ele>1129</ele>
        <time>2015-02-20T14:04:21Z</time>
      </trkpt>
      <trkpt lat="47.96122" lon="6.90852">
        <ele>1128</ele>
        <time>2015-02-20T14:04:31Z</time>
      </trkpt>
      <trkpt lat="47.9612" lon="6.90836">
        <ele>1128</ele>
        <time>2015-02-20T14:04:42Z</time>
      </trkpt>
      <trkpt lat="47.96118" lon="6.90822">
        <ele>1127</ele>
        <time>2015-02-20T14:04:53Z</time>
      </trkpt>
      <trkpt lat="47.96117" lon="6.90807">
        <ele>1126</ele>
        <time>2015-02-20T14:05:04Z</time>
      </trkpt>
      <trkpt lat="47.96115" lon="6.90791">
        <ele>1125</ele>
        <time>2015-02-20T14:05:14Z</time>
      </trkpt>
      <trkpt lat="47.96115" lon="6.90775">
        <ele>1124</ele>
        <time>2015-02-20T14:05:25Z</time>
      </trkpt>
      <trkpt lat="47.96114" lon="6.9076">
        <ele>1122</ele>
        <time>2015-02-20T14:05:36Z</time>
      </trkpt>
      <trkpt lat="47.9611" lon="6.90746">
        <ele>1121</ele>
        <time>2015-02-20T14:05:46Z</time>
      </trkpt>
      <trkpt lat="47.96108" lon="6.90735">
        <ele>1121</ele>
        <time>2015-02-20T14:05:56Z</time>
      </trkpt>
      <trkpt lat="47.96107" lon="6.90728">
        <ele>1121</ele>
        <time>2015-02-20T14:06:06Z</time>
      </trkpt>
      <trkpt lat="47.96109" lon="6.90726">
        <ele>1121</ele>
        <time>2015-02-20T14:06:17Z</time>
      </trkpt>
      <trkpt lat="47.96111" lon="6.90721">
        <ele>1121</ele>
        <time>2015-02-20T14:06:27Z</time>
      </trkpt>
      <trkpt lat="47.96107" lon="6.90711">
        <ele>1120</ele>
        <time>2015-02-20T14:06:38Z</time>
      </trkpt>
      <trkpt lat="47.96103" lon="6.90704">
        <ele>1120</ele>
        <time>2015-02-20T14:06:49Z</time>
      </trkpt>
      <trkpt lat="47.96102" lon="6.907">
        <ele>1120</ele>
        <time>2015-02-20T14:06:59Z</time>
      </trkpt>
      <trkpt lat="47.96102" lon="6.90692">
        <ele>1120</ele>
        <time>2015-02-20T14:07:09Z</time>
      </trkpt>
      <trkpt lat="47.96107" lon="6.90676">
        <ele>1118</ele>
        <time>2015-02-20T14:07:19Z</time>
      </trkpt>
      <trkpt lat="47.96111" lon="6.90663">
        <ele>1118</ele>
        <time>2015-02-20T14:07:29Z</time>
      </trkpt>
      <trkpt lat="47.96114" lon="6.90644">
        <ele>1118</ele>
        <time>2015-02-20T14:07:40Z</time>
      </trkpt>
      <trkpt lat="47.96116" lon="6.90629">
        <ele>1115</ele>
        <time>2015-02-20T14:07:50Z</time>
      </trkpt>
      <trkpt lat="47.96116" lon="6.9061">
        <ele>1114</ele>
        <time>2015-02-20T14:08:01Z</time>
      </trkpt>
      <trkpt lat="47.96115" lon="6.90592">
        <ele>1113</ele>
        <time>2015-02-20T14:08:11Z</time>
      </trkpt>
      <trkpt lat="47.96114" lon="6.9058">
        <ele>1111</ele>
        <time>2015-02-20T14:08:21Z</time>
      </trkpt>
      <trkpt lat="47.96114" lon="6.90566">
        <ele>1110</ele>
        <time>2015-02-20T14:08:31Z</time>
      </trkpt>
      <trkpt lat="47.96114" lon="6.90551">
        <ele>1108</ele>
        <time>2015-02-20T14:08:41Z</time>
      </trkpt>
      <trkpt lat="47.96111" lon="6.90534">
        <ele>1106</ele>
        <time>2015-02-20T14:08:52Z</time>
      </trkpt>
      <trkpt lat="47.96112" lon="6.9052">
        <ele>1105</ele>
        <time>2015-02-20T14:09:03Z</time>
      </trkpt>
      <trkpt lat="47.96111" lon="6.90505">
        <ele>1103</ele>
        <time>2015-02-20T14:09:13Z</time>
      </trkpt>
      <trkpt lat="47.96107" lon="6.90485">
        <ele>1101</ele>
        <time>2015-02-20T14:09:24Z</time>
      </trkpt>
      <trkpt lat="47.96103" lon="6.90465">
        <ele>1100</ele>
        <time>2015-02-20T14:09:35Z</time>
      </trkpt>
      <trkpt lat="47.96101" lon="6.90453">
        <ele>1098</ele>
        <time>2015-02-20T14:09:45Z</time>
      </trkpt>
      <trkpt lat="47.961" lon="6.90438">
        <ele>1096</ele>
        <time>2015-02-20T14:09:55Z</time>
      </trkpt>
      <trkpt lat="47.96098" lon="6.90421">
        <ele>1094</ele>
        <time>2015-02-20T14:10:06Z</time>
      </trkpt>
      <trkpt lat="47.96095" lon="6.90409">
        <ele>1093</ele>
        <time>2015-02-20T14:10:16Z</time>
      </trkpt>
      <trkpt lat="47.9609" lon="6.90394">
        <ele>1092</ele>
        <time>2015-02-20T14:10:26Z</time>
      </trkpt>
      <trkpt lat="47.96084" lon="6.90378">
        <ele>1091</ele>
        <time>2015-02-20T14:10:36Z</time>
      </trkpt>
      <trkpt lat="47.9608" lon="6.90363">
        <ele>1091</ele>
        <time>2015-02-20T14:10:46Z</time>
      </trkpt>
      <trkpt lat="47.96074" lon="6.90352">
        <ele>1091</ele>
        <time>2015-02-20T14:10:56Z</time>
      </trkpt>
      <trkpt lat="47.96068" lon="6.90343">
        <ele>1090</ele>
        <time>2015-02-20T14:11:06Z</time>
      </trkpt>
      <trkpt lat="47.96062" lon="6.90328">
        <ele>1090</ele>
        <time>2015-02-20T14:11:16Z</time>
      </trkpt>
      <trkpt lat="47.96056" lon="6.90314">
        <ele>1089</ele>
        <time>2015-02-20T14:11:26Z</time>
      </trkpt>
      <trkpt lat="47.96049" lon="6.90299">
        <ele>1089</ele>
        <time>2015-02-20T14:11:37Z</time>
      </trkpt>
      <trkpt lat="47.96044" lon="6.90286">
        <ele>1089</ele>
        <time>2015-02-20T14:11:47Z</time>
      </trkpt>
      <trkpt lat="47.9604" lon="6.90274">
        <ele>1088</ele>
        <time>2015-02-20T14:11:58Z</time>
      </trkpt>
      <trkpt lat="47.96033" lon="6.90264">
        <ele>1088</ele>
        <time>2015-02-20T14:12:08Z</time>
      </trkpt>
      <trkpt lat="47.9603" lon="6.90251">
        <ele>1088</ele>
        <time>2015-02-20T14:12:19Z</time>
      </trkpt>
      <trkpt lat="47.96023" lon="6.90237">
        <ele>1087</ele>
        <time>2015-02-20T14:12:30Z</time>
      </trkpt>
      <trkpt lat="47.96016" lon="6.90226">
        <ele>1087</ele>
        <time>2015-02-20T14:12:41Z</time>
      </trkpt>
      <trkpt lat="47.9601" lon="6.90211">
        <ele>1086</ele>
        <time>2015-02-20T14:12:52Z</time>
      </trkpt>
      <trkpt lat="47.96006" lon="6.90197">
        <ele>1085</ele>
        <time>2015-02-20T14:13:02Z</time>
      </trkpt>
      <trkpt lat="47.95999" lon="6.90186">
        <ele>1085</ele>
        <time>2015-02-20T14:13:13Z</time>
      </trkpt>
      <trkpt lat="47.95993" lon="6.90174">
        <ele>1084</ele>
        <time>2015-02-20T14:13:23Z</time>
      </trkpt>
      <trkpt lat="47.95984" lon="6.9016">
        <ele>1084</ele>
        <time>2015-02-20T14:13:33Z</time>
      </trkpt>
      <trkpt lat="47.95975" lon="6.90147">
        <ele>1084</ele>
        <time>2015-02-20T14:13:44Z</time>
      </trkpt>
      <trkpt lat="47.95966" lon="6.90135">
        <ele>1083</ele>
        <time>2015-02-20T14:13:54Z</time>
      </trkpt>
      <trkpt lat="47.95957" lon="6.90128">
        <ele>1084</ele>
        <time>2015-02-20T14:14:04Z</time>
      </trkpt>
      <trkpt lat="47.95947" lon="6.90122">
        <ele>1084</ele>
        <time>2015-02-20T14:14:15Z</time>
      </trkpt>
      <trkpt lat="47.95937" lon="6.90114">
        <ele>1084</ele>
        <time>2015-02-20T14:14:25Z</time>
      </trkpt>
      <trkpt lat="47.95927" lon="6.90107">
        <ele>1085</ele>
        <time>2015-02-20T14:14:36Z</time>
      </trkpt>
      <trkpt lat="47.95918" lon="6.90103">
        <ele>1084</ele>
        <time>2015-02-20T14:14:46Z</time>
      </trkpt>
      <trkpt lat="47.95909" lon="6.90095">
        <ele>1084</ele>
        <time>2015-02-20T14:14:56Z</time>
      </trkpt>
      <trkpt lat="47.959" lon="6.90089">
        <ele>1084</ele>
        <time>2015-02-20T14:15:06Z</time>
      </trkpt>
      <trkpt lat="47.95894" lon="6.90082">
        <ele>1084</ele>
        <time>2015-02-20T14:15:17Z</time>
      </trkpt>
      <trkpt lat="47.95893" lon="6.90079">
        <ele>1084</ele>
        <time>2015-02-20T14:15:29Z</time>
      </trkpt>
      <trkpt lat="47.95889" lon="6.90076">
        <ele>1084</ele>
        <time>2015-02-20T14:15:39Z</time>
      </trkpt>
      <trkpt lat="47.9588" lon="6.90073">
        <ele>1083</ele>
        <time>2015-02-20T14:15:50Z</time>
      </trkpt>
      <trkpt lat="47.95871" lon="6.9007">
        <ele>1084</ele>
        <time>2015-02-20T14:16:00Z</time>
      </trkpt>
      <trkpt lat="47.95863" lon="6.90067">
        <ele>1084</ele>
        <time>2015-02-20T14:16:11Z</time>
      </trkpt>
      <trkpt lat="47.95854" lon="6.90063">
        <ele>1083</ele>
        <time>2015-02-20T14:16:22Z</time>
      </trkpt>
      <trkpt lat="47.95842" lon="6.9006">
        <ele>1083</ele>
        <time>2015-02-20T14:16:32Z</time>
      </trkpt>
      <trkpt lat="47.95832" lon="6.90056">
        <ele>1083</ele>
        <time>2015-02-20T14:16:42Z</time>
      </trkpt>
      <trkpt lat="47.95823" lon="6.90054">
        <ele>1082</ele>
        <time>2015-02-20T14:16:52Z</time>
      </trkpt>
      <trkpt lat="47.95811" lon="6.90051">
        <ele>1083</ele>
        <time>2015-02-20T14:17:03Z</time>
      </trkpt>
      <trkpt lat="47.95807" lon="6.90051">
        <ele>1084</ele>
        <time>2015-02-20T14:17:13Z</time>
      </trkpt>
      <trkpt lat="47.958" lon="6.90053">
        <ele>1084</ele>
        <time>2015-02-20T14:17:24Z</time>
      </trkpt>
      <trkpt lat="47.95792" lon="6.90056">
        <ele>1085</ele>
        <time>2015-02-20T14:17:35Z</time>
      </trkpt>
      <trkpt lat="47.95786" lon="6.90063">
        <ele>1086</ele>
        <time>2015-02-20T14:17:45Z</time>
      </trkpt>
      <trkpt lat="47.9578" lon="6.90067">
        <ele>1087</ele>
        <time>2015-02-20T14:17:56Z</time>
      </trkpt>
      <trkpt lat="47.95773" lon="6.90069">
        <ele>1087</ele>
        <time>2015-02-20T14:18:06Z</time>
      </trkpt>
      <trkpt lat="47.95765" lon="6.90071">
        <ele>1088</ele>
        <time>2015-02-20T14:18:17Z</time>
      </trkpt>
      <trkpt lat="47.95758" lon="6.90073">
        <ele>1089</ele>
        <time>2015-02-20T14:18:27Z</time>
      </trkpt>
      <trkpt lat="47.95752" lon="6.90078">
        <ele>1089</ele>
        <time>2015-02-20T14:18:37Z</time>
      </trkpt>
      <trkpt lat="47.95744" lon="6.90081">
        <ele>1089</ele>
        <time>2015-02-20T14:18:48Z</time>
      </trkpt>
      <trkpt lat="47.95736" lon="6.9008">
        <ele>1090</ele>
        <time>2015-02-20T14:18:58Z</time>
      </trkpt>
      <trkpt lat="47.95728" lon="6.90086">
        <ele>1091</ele>
        <time>2015-02-20T14:19:09Z</time>
      </trkpt>
      <trkpt lat="47.95718" lon="6.90089">
        <ele>1092</ele>
        <time>2015-02-20T14:19:20Z</time>
      </trkpt>
      <trkpt lat="47.95707" lon="6.9009">
        <ele>1092</ele>
        <time>2015-02-20T14:19:31Z</time>
      </trkpt>
      <trkpt lat="47.95695" lon="6.90092">
        <ele>1091</ele>
        <time>2015-02-20T14:19:41Z</time>
      </trkpt>
      <trkpt lat="47.95686" lon="6.90089">
        <ele>1092</ele>
        <time>2015-02-20T14:19:51Z</time>
      </trkpt>
      <trkpt lat="47.95675" lon="6.90087">
        <ele>1092</ele>
        <time>2015-02-20T14:20:02Z</time>
      </trkpt>
      <trkpt lat="47.95676" lon="6.90087">
        <ele>1092</ele>
        <time>2015-02-20T14:20:13Z</time>
      </trkpt>
      <trkpt lat="47.95668" lon="6.90082">
        <ele>1092</ele>
        <time>2015-02-20T14:20:23Z</time>
      </trkpt>
      <trkpt lat="47.95661" lon="6.90082">
        <ele>1092</ele>
        <time>2015-02-20T14:20:34Z</time>
      </trkpt>
      <trkpt lat="47.9565" lon="6.90081">
        <ele>1093</ele>
        <time>2015-02-20T14:20:45Z</time>
      </trkpt>
      <trkpt lat="47.95639" lon="6.9008">
        <ele>1092</ele>
        <time>2015-02-20T14:20:56Z</time>
      </trkpt>
      <trkpt lat="47.95634" lon="6.90082">
        <ele>1092</ele>
        <time>2015-02-20T14:21:06Z</time>
      </trkpt>
      <trkpt lat="47.95634" lon="6.90082">
        <ele>1093</ele>
        <time>2015-02-20T14:21:19Z</time>
      </trkpt>
      <trkpt lat="47.95634" lon="6.90082">
        <ele>1092</ele>
        <time>2015-02-20T14:21:29Z</time>
      </trkpt>
      <trkpt lat="47.95633" lon="6.90084">
        <ele>1093</ele>
        <time>2015-02-20T14:21:40Z</time>
      </trkpt>
      <trkpt lat="47.95634" lon="6.90085">
        <ele>1093</ele>
        <time>2015-02-20T14:21:50Z</time>
      </trkpt>
      <trkpt lat="47.95633" lon="6.90087">
        <ele>1093</ele>
        <time>2015-02-20T14:22:01Z</time>
      </trkpt>
      <trkpt lat="47.95631" lon="6.90089">
        <ele>1093</ele>
        <time>2015-02-20T14:22:11Z</time>
      </trkpt>
      <trkpt lat="47.95627" lon="6.90089">
        <ele>1093</ele>
        <time>2015-02-20T14:22:22Z</time>
      </trkpt>
      <trkpt lat="47.95623" lon="6.90086">
        <ele>1094</ele>
        <time>2015-02-20T14:22:33Z</time>
      </trkpt>
      <trkpt lat="47.95623" lon="6.90086">
        <ele>1094</ele>
        <time>2015-02-20T14:22:43Z</time>
      </trkpt>
      <trkpt lat="47.95621" lon="6.90085">
        <ele>1094</ele>
        <time>2015-02-20T14:22:53Z</time>
      </trkpt>
      <trkpt lat="47.95616" lon="6.90085">
        <ele>1094</ele>
        <time>2015-02-20T14:23:04Z</time>
      </trkpt>
      <trkpt lat="47.95606" lon="6.90078">
        <ele>1095</ele>
        <time>2015-02-20T14:23:14Z</time>
      </trkpt>
      <trkpt lat="47.95593" lon="6.90066">
        <ele>1094</ele>
        <time>2015-02-20T14:23:24Z</time>
      </trkpt>
      <trkpt lat="47.95581" lon="6.90054">
        <ele>1095</ele>
        <time>2015-02-20T14:23:35Z</time>
      </trkpt>
      <trkpt lat="47.9557" lon="6.90044">
        <ele>1096</ele>
        <time>2015-02-20T14:23:46Z</time>
      </trkpt>
      <trkpt lat="47.95559" lon="6.90035">
        <ele>1097</ele>
        <time>2015-02-20T14:23:56Z</time>
      </trkpt>
      <trkpt lat="47.9555" lon="6.9002">
        <ele>1097</ele>
        <time>2015-02-20T14:24:07Z</time>
      </trkpt>
      <trkpt lat="47.95542" lon="6.90003">
        <ele>1098</ele>
        <time>2015-02-20T14:24:18Z</time>
      </trkpt>
      <trkpt lat="47.95537" lon="6.89991">
        <ele>1098</ele>
        <time>2015-02-20T14:24:28Z</time>
      </trkpt>
      <trkpt lat="47.95532" lon="6.89977">
        <ele>1098</ele>
        <time>2015-02-20T14:24:38Z</time>
      </trkpt>
      <trkpt lat="47.95528" lon="6.89962">
        <ele>1099</ele>
        <time>2015-02-20T14:24:49Z</time>
      </trkpt>
      <trkpt lat="47.95528" lon="6.89948">
        <ele>1099</ele>
        <time>2015-02-20T14:25:00Z</time>
      </trkpt>
      <trkpt lat="47.95528" lon="6.89933">
        <ele>1099</ele>
        <time>2015-02-20T14:25:11Z</time>
      </trkpt>
      <trkpt lat="47.9553" lon="6.89926">
        <ele>1099</ele>
        <time>2015-02-20T14:25:21Z</time>
      </trkpt>
      <trkpt lat="47.95532" lon="6.89919">
        <ele>1099</ele>
        <time>2015-02-20T14:25:32Z</time>
      </trkpt>
      <trkpt lat="47.95532" lon="6.89905">
        <ele>1098</ele>
        <time>2015-02-20T14:25:42Z</time>
      </trkpt>
      <trkpt lat="47.95533" lon="6.89887">
        <ele>1098</ele>
        <time>2015-02-20T14:25:52Z</time>
      </trkpt>
      <trkpt lat="47.95531" lon="6.89872">
        <ele>1098</ele>
        <time>2015-02-20T14:26:03Z</time>
      </trkpt>
      <trkpt lat="47.95531" lon="6.89858">
        <ele>1098</ele>
        <time>2015-02-20T14:26:14Z</time>
      </trkpt>
      <trkpt lat="47.95533" lon="6.89843">
        <ele>1098</ele>
        <time>2015-02-20T14:26:24Z</time>
      </trkpt>
      <trkpt lat="47.95534" lon="6.89829">
        <ele>1097</ele>
        <time>2015-02-20T14:26:34Z</time>
      </trkpt>
      <trkpt lat="47.95534" lon="6.89813">
        <ele>1097</ele>
        <time>2015-02-20T14:26:45Z</time>
      </trkpt>
      <trkpt lat="47.95534" lon="6.89796">
        <ele>1097</ele>
        <time>2015-02-20T14:26:56Z</time>
      </trkpt>
      <trkpt lat="47.95534" lon="6.89783">
        <ele>1096</ele>
        <time>2015-02-20T14:27:07Z</time>
      </trkpt>
      <trkpt lat="47.95533" lon="6.89767">
        <ele>1096</ele>
        <time>2015-02-20T14:27:17Z</time>
      </trkpt>
      <trkpt lat="47.95533" lon="6.8975">
        <ele>1096</ele>
        <time>2015-02-20T14:27:27Z</time>
      </trkpt>
      <trkpt lat="47.95535" lon="6.89736">
        <ele>1096</ele>
        <time>2015-02-20T14:27:38Z</time>
      </trkpt>
      <trkpt lat="47.95535" lon="6.89727">
        <ele>1096</ele>
        <time>2015-02-20T14:27:48Z</time>
      </trkpt>
      <trkpt lat="47.9554" lon="6.89708">
        <ele>1095</ele>
        <time>2015-02-20T14:27:59Z</time>
      </trkpt>
      <trkpt lat="47.9554" lon="6.8969">
        <ele>1095</ele>
        <time>2015-02-20T14:28:10Z</time>
      </trkpt>
      <trkpt lat="47.95539" lon="6.89676">
        <ele>1095</ele>
        <time>2015-02-20T14:28:21Z</time>
      </trkpt>
      <trkpt lat="47.95535" lon="6.89667">
        <ele>1096</ele>
        <time>2015-02-20T14:28:31Z</time>
      </trkpt>
      <trkpt lat="47.95533" lon="6.89661">
        <ele>1096</ele>
        <time>2015-02-20T14:28:42Z</time>
      </trkpt>
      <trkpt lat="47.9553" lon="6.89654">
        <ele>1097</ele>
        <time>2015-02-20T14:28:53Z</time>
      </trkpt>
      <trkpt lat="47.95522" lon="6.8964">
        <ele>1096</ele>
        <time>2015-02-20T14:29:04Z</time>
      </trkpt>
      <trkpt lat="47.95513" lon="6.89627">
        <ele>1095</ele>
        <time>2015-02-20T14:29:15Z</time>
      </trkpt>
      <trkpt lat="47.95503" lon="6.89614">
        <ele>1095</ele>
        <time>2015-02-20T14:29:25Z</time>
      </trkpt>
      <trkpt lat="47.95494" lon="6.89606">
        <ele>1095</ele>
        <time>2015-02-20T14:29:35Z</time>
      </trkpt>
      <trkpt lat="47.95485" lon="6.89598">
        <ele>1095</ele>
        <time>2015-02-20T14:29:46Z</time>
      </trkpt>
      <trkpt lat="47.95475" lon="6.89594">
        <ele>1095</ele>
        <time>2015-02-20T14:29:56Z</time>
      </trkpt>
      <trkpt lat="47.95465" lon="6.89592">
        <ele>1095</ele>
        <time>2015-02-20T14:30:06Z</time>
      </trkpt>
      <trkpt lat="47.95455" lon="6.89585">
        <ele>1095</ele>
        <time>2015-02-20T14:30:17Z</time>
      </trkpt>
      <trkpt lat="47.95446" lon="6.89577">
        <ele>1095</ele>
        <time>2015-02-20T14:30:28Z</time>
      </trkpt>
      <trkpt lat="47.95434" lon="6.89568">
        <ele>1095</ele>
        <time>2015-02-20T14:30:39Z</time>
      </trkpt>
      <trkpt lat="47.95424" lon="6.89558">
        <ele>1095</ele>
        <time>2015-02-20T14:30:50Z</time>
      </trkpt>
      <trkpt lat="47.95415" lon="6.89551">
        <ele>1094</ele>
        <time>2015-02-20T14:31:00Z</time>
      </trkpt>
      <trkpt lat="47.95405" lon="6.89542">
        <ele>1094</ele>
        <time>2015-02-20T14:31:11Z</time>
      </trkpt>
      <trkpt lat="47.95395" lon="6.89535">
        <ele>1095</ele>
        <time>2015-02-20T14:31:22Z</time>
      </trkpt>
      <trkpt lat="47.95388" lon="6.89531">
        <ele>1095</ele>
        <time>2015-02-20T14:31:33Z</time>
      </trkpt>
      <trkpt lat="47.9538" lon="6.89527">
        <ele>1095</ele>
        <time>2015-02-20T14:31:44Z</time>
      </trkpt>
      <trkpt lat="47.9537" lon="6.89526">
        <ele>1095</ele>
        <time>2015-02-20T14:31:54Z</time>
      </trkpt>
      <trkpt lat="47.95362" lon="6.89524">
        <ele>1095</ele>
        <time>2015-02-20T14:32:05Z</time>
      </trkpt>
      <trkpt lat="47.95352" lon="6.89521">
        <ele>1096</ele>
        <time>2015-02-20T14:32:15Z</time>
      </trkpt>
      <trkpt lat="47.95343" lon="6.89519">
        <ele>1095</ele>
        <time>2015-02-20T14:32:26Z</time>
      </trkpt>
      <trkpt lat="47.95336" lon="6.89519">
        <ele>1095</ele>
        <time>2015-02-20T14:32:37Z</time>
      </trkpt>
      <trkpt lat="47.95325" lon="6.89513">
        <ele>1094</ele>
        <time>2015-02-20T14:32:48Z</time>
      </trkpt>
      <trkpt lat="47.95314" lon="6.8951">
        <ele>1093</ele>
        <time>2015-02-20T14:32:59Z</time>
      </trkpt>
      <trkpt lat="47.95302" lon="6.89505">
        <ele>1091</ele>
        <time>2015-02-20T14:33:10Z</time>
      </trkpt>
      <trkpt lat="47.95292" lon="6.895">
        <ele>1091</ele>
        <time>2015-02-20T14:33:21Z</time>
      </trkpt>
      <trkpt lat="47.95282" lon="6.89495">
        <ele>1090</ele>
        <time>2015-02-20T14:33:32Z</time>
      </trkpt>
      <trkpt lat="47.95272" lon="6.8949">
        <ele>1089</ele>
        <time>2015-02-20T14:33:43Z</time>
      </trkpt>
      <trkpt lat="47.95262" lon="6.89488">
        <ele>1088</ele>
        <time>2015-02-20T14:33:53Z</time>
      </trkpt>
      <trkpt lat="47.95251" lon="6.89488">
        <ele>1088</ele>
        <time>2015-02-20T14:34:04Z</time>
      </trkpt>
      <trkpt lat="47.95242" lon="6.89488">
        <ele>1089</ele>
        <time>2015-02-20T14:34:14Z</time>
      </trkpt>
      <trkpt lat="47.95234" lon="6.89491">
        <ele>1088</ele>
        <time>2015-02-20T14:34:24Z</time>
      </trkpt>
      <trkpt lat="47.95224" lon="6.89495">
        <ele>1089</ele>
        <time>2015-02-20T14:34:35Z</time>
      </trkpt>
      <trkpt lat="47.95219" lon="6.89498">
        <ele>1090</ele>
        <time>2015-02-20T14:34:45Z</time>
      </trkpt>
      <trkpt lat="47.95211" lon="6.89504">
        <ele>1090</ele>
        <time>2015-02-20T14:34:56Z</time>
      </trkpt>
      <trkpt lat="47.95203" lon="6.89511">
        <ele>1090</ele>
        <time>2015-02-20T14:35:07Z</time>
      </trkpt>
      <trkpt lat="47.95197" lon="6.89516">
        <ele>1090</ele>
        <time>2015-02-20T14:35:17Z</time>
      </trkpt>
      <trkpt lat="47.9519" lon="6.89522">
        <ele>1091</ele>
        <time>2015-02-20T14:35:28Z</time>
      </trkpt>
      <trkpt lat="47.95183" lon="6.89531">
        <ele>1092</ele>
        <time>2015-02-20T14:35:38Z</time>
      </trkpt>
      <trkpt lat="47.95173" lon="6.89533">
        <ele>1092</ele>
        <time>2015-02-20T14:35:49Z</time>
      </trkpt>
      <trkpt lat="47.95167" lon="6.89538">
        <ele>1092</ele>
        <time>2015-02-20T14:35:59Z</time>
      </trkpt>
      <trkpt lat="47.95158" lon="6.89544">
        <ele>1092</ele>
        <time>2015-02-20T14:36:09Z</time>
      </trkpt>
      <trkpt lat="47.9515" lon="6.89549">
        <ele>1092</ele>
        <time>2015-02-20T14:36:20Z</time>
      </trkpt>
      <trkpt lat="47.95143" lon="6.89559">
        <ele>1093</ele>
        <time>2015-02-20T14:36:30Z</time>
      </trkpt>
      <trkpt lat="47.95134" lon="6.89563">
        <ele>1093</ele>
        <time>2015-02-20T14:36:41Z</time>
      </trkpt>
      <trkpt lat="47.95124" lon="6.89566">
        <ele>1091</ele>
        <time>2015-02-20T14:36:51Z</time>
      </trkpt>
      <trkpt lat="47.95116" lon="6.8957">
        <ele>1090</ele>
        <time>2015-02-20T14:37:01Z</time>
      </trkpt>
      <trkpt lat="47.95105" lon="6.8957">
        <ele>1089</ele>
        <time>2015-02-20T14:37:12Z</time>
      </trkpt>
      <trkpt lat="47.95091" lon="6.89566">
        <ele>1089</ele>
        <time>2015-02-20T14:37:22Z</time>
      </trkpt>
      <trkpt lat="47.95077" lon="6.89561">
        <ele>1088</ele>
        <time>2015-02-20T14:37:33Z</time>
      </trkpt>
      <trkpt lat="47.95063" lon="6.89557">
        <ele>1086</ele>
        <time>2015-02-20T14:37:43Z</time>
      </trkpt>
      <trkpt lat="47.9505" lon="6.89555">
        <ele>1085</ele>
        <time>2015-02-20T14:37:53Z</time>
      </trkpt>
      <trkpt lat="47.95039" lon="6.89558">
        <ele>1083</ele>
        <time>2015-02-20T14:38:04Z</time>
      </trkpt>
      <trkpt lat="47.95027" lon="6.89559">
        <ele>1083</ele>
        <time>2015-02-20T14:38:15Z</time>
      </trkpt>
      <trkpt lat="47.95015" lon="6.89557">
        <ele>1082</ele>
        <time>2015-02-20T14:38:25Z</time>
      </trkpt>
      <trkpt lat="47.95004" lon="6.89557">
        <ele>1081</ele>
        <time>2015-02-20T14:38:35Z</time>
      </trkpt>
      <trkpt lat="47.94994" lon="6.89557">
        <ele>1079</ele>
        <time>2015-02-20T14:38:45Z</time>
      </trkpt>
      <trkpt lat="47.94985" lon="6.89555">
        <ele>1079</ele>
        <time>2015-02-20T14:38:56Z</time>
      </trkpt>
      <trkpt lat="47.94981" lon="6.89553">
        <ele>1078</ele>
        <time>2015-02-20T14:39:06Z</time>
      </trkpt>
      <trkpt lat="47.94976" lon="6.8955">
        <ele>1078</ele>
        <time>2015-02-20T14:39:16Z</time>
      </trkpt>
      <trkpt lat="47.94967" lon="6.89546">
        <ele>1077</ele>
        <time>2015-02-20T14:39:27Z</time>
      </trkpt>
      <trkpt lat="47.94958" lon="6.89542">
        <ele>1076</ele>
        <time>2015-02-20T14:39:38Z</time>
      </trkpt>
      <trkpt lat="47.94949" lon="6.89538">
        <ele>1074</ele>
        <time>2015-02-20T14:39:49Z</time>
      </trkpt>
      <trkpt lat="47.94938" lon="6.89534">
        <ele>1073</ele>
        <time>2015-02-20T14:40:00Z</time>
      </trkpt>
      <trkpt lat="47.94926" lon="6.89531">
        <ele>1071</ele>
        <time>2015-02-20T14:40:10Z</time>
      </trkpt>
      <trkpt lat="47.94917" lon="6.89525">
        <ele>1070</ele>
        <time>2015-02-20T14:40:21Z</time>
      </trkpt>
      <trkpt lat="47.9491" lon="6.8952">
        <ele>1068</ele>
        <time>2015-02-20T14:40:31Z</time>
      </trkpt>
      <trkpt lat="47.94902" lon="6.89517">
        <ele>1067</ele>
        <time>2015-02-20T14:40:41Z</time>
      </trkpt>
      <trkpt lat="47.94893" lon="6.89513">
        <ele>1067</ele>
        <time>2015-02-20T14:40:51Z</time>
      </trkpt>
      <trkpt lat="47.94884" lon="6.89509">
        <ele>1066</ele>
        <time>2015-02-20T14:41:02Z</time>
      </trkpt>
      <trkpt lat="47.94874" lon="6.89507">
        <ele>1064</ele>
        <time>2015-02-20T14:41:13Z</time>
      </trkpt>
      <trkpt lat="47.94866" lon="6.89504">
        <ele>1063</ele>
        <time>2015-02-20T14:41:24Z</time>
      </trkpt>
      <trkpt lat="47.94858" lon="6.89495">
        <ele>1062</ele>
        <time>2015-02-20T14:41:35Z</time>
      </trkpt>
      <trkpt lat="47.94849" lon="6.8949">
        <ele>1061</ele>
        <time>2015-02-20T14:41:46Z</time>
      </trkpt>
      <trkpt lat="47.94838" lon="6.89488">
        <ele>1059</ele>
        <time>2015-02-20T14:41:56Z</time>
      </trkpt>
      <trkpt lat="47.94828" lon="6.89482">
        <ele>1057</ele>
        <time>2015-02-20T14:42:07Z</time>
      </trkpt>
      <trkpt lat="47.94818" lon="6.89475">
        <ele>1056</ele>
        <time>2015-02-20T14:42:18Z</time>
      </trkpt>
      <trkpt lat="47.9481" lon="6.89472">
        <ele>1055</ele>
        <time>2015-02-20T14:42:28Z</time>
      </trkpt>
      <trkpt lat="47.94801" lon="6.89469">
        <ele>1053</ele>
        <time>2015-02-20T14:42:39Z</time>
      </trkpt>
      <trkpt lat="47.94793" lon="6.89468">
        <ele>1052</ele>
        <time>2015-02-20T14:42:49Z</time>
      </trkpt>
      <trkpt lat="47.94783" lon="6.89464">
        <ele>1052</ele>
        <time>2015-02-20T14:42:59Z</time>
      </trkpt>
      <trkpt lat="47.94773" lon="6.89459">
        <ele>1052</ele>
        <time>2015-02-20T14:43:10Z</time>
      </trkpt>
      <trkpt lat="47.94765" lon="6.89453">
        <ele>1051</ele>
        <time>2015-02-20T14:43:20Z</time>
      </trkpt>
      <trkpt lat="47.94755" lon="6.89448">
        <ele>1050</ele>
        <time>2015-02-20T14:43:31Z</time>
      </trkpt>
      <trkpt lat="47.94747" lon="6.89448">
        <ele>1049</ele>
        <time>2015-02-20T14:43:41Z</time>
      </trkpt>
      <trkpt lat="47.94736" lon="6.89448">
        <ele>1048</ele>
        <time>2015-02-20T14:43:52Z</time>
      </trkpt>
      <trkpt lat="47.94725" lon="6.89447">
        <ele>1048</ele>
        <time>2015-02-20T14:44:03Z</time>
      </trkpt>
      <trkpt lat="47.94714" lon="6.89444">
        <ele>1047</ele>
        <time>2015-02-20T14:44:13Z</time>
      </trkpt>
      <trkpt lat="47.94709" lon="6.89442">
        <ele>1047</ele>
        <time>2015-02-20T14:44:24Z</time>
      </trkpt>
      <trkpt lat="47.94709" lon="6.89442">
        <ele>1047</ele>
        <time>2015-02-20T14:44:34Z</time>
      </trkpt>
      <trkpt lat="47.94709" lon="6.89439">
        <ele>1047</ele>
        <time>2015-02-20T14:44:45Z</time>
      </trkpt>
      <trkpt lat="47.94709" lon="6.89438">
        <ele>1047</ele>
        <time>2015-02-20T14:44:57Z</time>
      </trkpt>
      <trkpt lat="47.94709" lon="6.89435">
        <ele>1047</ele>
        <time>2015-02-20T14:45:07Z</time>
      </trkpt>
      <trkpt lat="47.94709" lon="6.89434">
        <ele>1047</ele>
        <time>2015-02-20T14:45:17Z</time>
      </trkpt>
      <trkpt lat="47.9471" lon="6.89434">
        <ele>1047</ele>
        <time>2015-02-20T14:45:27Z</time>
      </trkpt>
      <trkpt lat="47.94711" lon="6.89434">
        <ele>1047</ele>
        <time>2015-02-20T14:45:37Z</time>
      </trkpt>
      <trkpt lat="47.94711" lon="6.89433">
        <ele>1047</ele>
        <time>2015-02-20T14:45:47Z</time>
      </trkpt>
      <trkpt lat="47.94711" lon="6.89432">
        <ele>1047</ele>
        <time>2015-02-20T14:45:58Z</time>
      </trkpt>
      <trkpt lat="47.9471" lon="6.89432">
        <ele>1047</ele>
        <time>2015-02-20T14:46:08Z</time>
      </trkpt>
      <trkpt lat="47.94709" lon="6.89433">
        <ele>1047</ele>
        <time>2015-02-20T14:46:18Z</time>
      </trkpt>
      <trkpt lat="47.94709" lon="6.89434">
        <ele>1047</ele>
        <time>2015-02-20T14:46:28Z</time>
      </trkpt>
      <trkpt lat="47.94709" lon="6.89435">
        <ele>1047</ele>
        <time>2015-02-20T14:46:38Z</time>
      </trkpt>
      <trkpt lat="47.9471" lon="6.89435">
        <ele>1047</ele>
        <time>2015-02-20T14:46:49Z</time>
      </trkpt>
      <trkpt lat="47.94712" lon="6.89434">
        <ele>1047</ele>
        <time>2015-02-20T14:46:59Z</time>
      </trkpt>
      <trkpt lat="47.94712" lon="6.89432">
        <ele>1047</ele>
        <time>2015-02-20T14:47:09Z</time>
      </trkpt>
      <trkpt lat="47.9471" lon="6.89437">
        <ele>1047</ele>
        <time>2015-02-20T14:47:19Z</time>
      </trkpt>
      <trkpt lat="47.94709" lon="6.8944">
        <ele>1047</ele>
        <time>2015-02-20T14:47:30Z</time>
      </trkpt>
      <trkpt lat="47.94709" lon="6.89441">
        <ele>1046</ele>
        <time>2015-02-20T14:47:41Z</time>
      </trkpt>
      <trkpt lat="47.9471" lon="6.89442">
        <ele>1047</ele>
        <time>2015-02-20T14:47:51Z</time>
      </trkpt>
      <trkpt lat="47.94709" lon="6.89442">
        <ele>1048</ele>
        <time>2015-02-20T14:48:02Z</time>
      </trkpt>
      <trkpt lat="47.94709" lon="6.89444">
        <ele>1047</ele>
        <time>2015-02-20T14:48:12Z</time>
      </trkpt>
      <trkpt lat="47.94709" lon="6.89442">
        <ele>1047</ele>
        <time>2015-02-20T14:48:24Z</time>
      </trkpt>
      <trkpt lat="47.94708" lon="6.89439">
        <ele>1048</ele>
        <time>2015-02-20T14:48:34Z</time>
      </trkpt>
      <trkpt lat="47.94712" lon="6.89437">
        <ele>1048</ele>
        <time>2015-02-20T14:48:45Z</time>
      </trkpt>
      <trkpt lat="47.94712" lon="6.89433">
        <ele>1048</ele>
        <time>2015-02-20T14:48:55Z</time>
      </trkpt>
      <trkpt lat="47.94712" lon="6.89431">
        <ele>1048</ele>
        <time>2015-02-20T14:49:06Z</time>
      </trkpt>
      <trkpt lat="47.94709" lon="6.89436">
        <ele>1047</ele>
        <time>2015-02-20T14:49:17Z</time>
      </trkpt>
      <trkpt lat="47.94707" lon="6.89439">
        <ele>1047</ele>
        <time>2015-02-20T14:49:28Z</time>
      </trkpt>
      <trkpt lat="47.94707" lon="6.8944">
        <ele>1048</ele>
        <time>2015-02-20T14:49:38Z</time>
      </trkpt>
      <trkpt lat="47.94705" lon="6.89439">
        <ele>1048</ele>
        <time>2015-02-20T14:49:49Z</time>
      </trkpt>
      <trkpt lat="47.94705" lon="6.89437">
        <ele>1048</ele>
        <time>2015-02-20T14:50:00Z</time>
      </trkpt>
      <trkpt lat="47.94708" lon="6.89435">
        <ele>1048</ele>
        <time>2015-02-20T14:50:10Z</time>
      </trkpt>
      <trkpt lat="47.94708" lon="6.89435">
        <ele>1047</ele>
        <time>2015-02-20T14:50:20Z</time>
      </trkpt>
      <trkpt lat="47.94709" lon="6.89434">
        <ele>1047</ele>
        <time>2015-02-20T14:50:32Z</time>
      </trkpt>
      <trkpt lat="47.9471" lon="6.89434">
        <ele>1047</ele>
        <time>2015-02-20T14:50:42Z</time>
      </trkpt>
      <trkpt lat="47.94711" lon="6.89436">
        <ele>1047</ele>
        <time>2015-02-20T14:50:53Z</time>
      </trkpt>
      <trkpt lat="47.94711" lon="6.89436">
        <ele>1048</ele>
        <time>2015-02-20T14:51:04Z</time>
      </trkpt>
      <trkpt lat="47.94708" lon="6.89442">
        <ele>1047</ele>
        <time>2015-02-20T14:51:14Z</time>
      </trkpt>
      <trkpt lat="47.94707" lon="6.89447">
        <ele>1047</ele>
        <time>2015-02-20T14:51:25Z</time>
      </trkpt>
      <trkpt lat="47.94704" lon="6.89446">
        <ele>1047</ele>
        <time>2015-02-20T14:51:36Z</time>
      </trkpt>
      <trkpt lat="47.94707" lon="6.89443">
        <ele>1047</ele>
        <time>2015-02-20T14:51:46Z</time>
      </trkpt>
      <trkpt lat="47.94709" lon="6.8944">
        <ele>1047</ele>
        <time>2015-02-20T14:51:57Z</time>
      </trkpt>
      <trkpt lat="47.9471" lon="6.89437">
        <ele>1047</ele>
        <time>2015-02-20T14:52:07Z</time>
      </trkpt>
      <trkpt lat="47.94711" lon="6.89436">
        <ele>1048</ele>
        <time>2015-02-20T14:52:17Z</time>
      </trkpt>
      <trkpt lat="47.94712" lon="6.89439">
        <ele>1047</ele>
        <time>2015-02-20T14:52:27Z</time>
      </trkpt>
      <trkpt lat="47.94714" lon="6.89439">
        <ele>1048</ele>
        <time>2015-02-20T14:52:37Z</time>
      </trkpt>
      <trkpt lat="47.94713" lon="6.89438">
        <ele>1048</ele>
        <time>2015-02-20T14:52:48Z</time>
      </trkpt>
      <trkpt lat="47.94712" lon="6.89438">
        <ele>1048</ele>
        <time>2015-02-20T14:52:58Z</time>
      </trkpt>
      <trkpt lat="47.94711" lon="6.89438">
        <ele>1047</ele>
        <time>2015-02-20T14:53:09Z</time>
      </trkpt>
      <trkpt lat="47.9471" lon="6.89439">
        <ele>1048</ele>
        <time>2015-02-20T14:53:19Z</time>
      </trkpt>
      <trkpt lat="47.94709" lon="6.8944">
        <ele>1048</ele>
        <time>2015-02-20T14:53:30Z</time>
      </trkpt>
      <trkpt lat="47.94708" lon="6.89442">
        <ele>1048</ele>
        <time>2015-02-20T14:53:41Z</time>
      </trkpt>
      <trkpt lat="47.94707" lon="6.89444">
        <ele>1048</ele>
        <time>2015-02-20T14:53:52Z</time>
      </trkpt>
      <trkpt lat="47.94706" lon="6.89444">
        <ele>1048</ele>
        <time>2015-02-20T14:54:03Z</time>
      </trkpt>
      <trkpt lat="47.94706" lon="6.89444">
        <ele>1048</ele>
        <time>2015-02-20T14:54:15Z</time>
      </trkpt>
      <trkpt lat="47.94707" lon="6.89442">
        <ele>1047</ele>
        <time>2015-02-20T14:54:26Z</time>
      </trkpt>
      <trkpt lat="47.94707" lon="6.89439">
        <ele>1048</ele>
        <time>2015-02-20T14:54:36Z</time>
      </trkpt>
      <trkpt lat="47.94708" lon="6.89436">
        <ele>1048</ele>
        <time>2015-02-20T14:54:46Z</time>
      </trkpt>
      <trkpt lat="47.9471" lon="6.89435">
        <ele>1048</ele>
        <time>2015-02-20T14:54:57Z</time>
      </trkpt>
      <trkpt lat="47.94712" lon="6.89434">
        <ele>1048</ele>
        <time>2015-02-20T14:55:07Z</time>
      </trkpt>
      <trkpt lat="47.94713" lon="6.89433">
        <ele>1048</ele>
        <time>2015-02-20T14:55:17Z</time>
      </trkpt>
      <trkpt lat="47.94713" lon="6.89433">
        <ele>1048</ele>
        <time>2015-02-20T14:55:28Z</time>
      </trkpt>
      <trkpt lat="47.94713" lon="6.89433">
        <ele>1048</ele>
        <time>2015-02-20T14:55:38Z</time>
      </trkpt>
      <trkpt lat="47.9471" lon="6.89435">
        <ele>1048</ele>
        <time>2015-02-20T14:55:48Z</time>
      </trkpt>
      <trkpt lat="47.94702" lon="6.89433">
        <ele>1048</ele>
        <time>2015-02-20T14:55:59Z</time>
      </trkpt>
      <trkpt lat="47.94695" lon="6.89434">
        <ele>1048</ele>
        <time>2015-02-20T14:56:10Z</time>
      </trkpt>
      <trkpt lat="47.94684" lon="6.89426">
        <ele>1047</ele>
        <time>2015-02-20T14:56:21Z</time>
      </trkpt>
      <trkpt lat="47.94674" lon="6.89416">
        <ele>1046</ele>
        <time>2015-02-20T14:56:32Z</time>
      </trkpt>
      <trkpt lat="47.94668" lon="6.89409">
        <ele>1045</ele>
        <time>2015-02-20T14:56:42Z</time>
      </trkpt>
      <trkpt lat="47.94661" lon="6.89397">
        <ele>1044</ele>
        <time>2015-02-20T14:56:53Z</time>
      </trkpt>
      <trkpt lat="47.94654" lon="6.89383">
        <ele>1043</ele>
        <time>2015-02-20T14:57:04Z</time>
      </trkpt>
      <trkpt lat="47.94645" lon="6.89373">
        <ele>1044</ele>
        <time>2015-02-20T14:57:14Z</time>
      </trkpt>
      <trkpt lat="47.9464" lon="6.8936">
        <ele>1043</ele>
        <time>2015-02-20T14:57:24Z</time>
      </trkpt>
      <trkpt lat="47.9463" lon="6.89348">
        <ele>1042</ele>
        <time>2015-02-20T14:57:35Z</time>
      </trkpt>
      <trkpt lat="47.94622" lon="6.89341">
        <ele>1041</ele>
        <time>2015-02-20T14:57:45Z</time>
      </trkpt>
      <trkpt lat="47.94616" lon="6.89333">
        <ele>1040</ele>
        <time>2015-02-20T14:57:55Z</time>
      </trkpt>
      <trkpt lat="47.94612" lon="6.89322">
        <ele>1040</ele>
        <time>2015-02-20T14:58:06Z</time>
      </trkpt>
      <trkpt lat="47.94604" lon="6.8931">
        <ele>1039</ele>
        <time>2015-02-20T14:58:16Z</time>
      </trkpt>
      <trkpt lat="47.94591" lon="6.89301">
        <ele>1038</ele>
        <time>2015-02-20T14:58:27Z</time>
      </trkpt>
      <trkpt lat="47.94579" lon="6.89293">
        <ele>1038</ele>
        <time>2015-02-20T14:58:38Z</time>
      </trkpt>
      <trkpt lat="47.94569" lon="6.89288">
        <ele>1037</ele>
        <time>2015-02-20T14:58:48Z</time>
      </trkpt>
      <trkpt lat="47.94557" lon="6.89281">
        <ele>1037</ele>
        <time>2015-02-20T14:58:58Z</time>
      </trkpt>
      <trkpt lat="47.94545" lon="6.89268">
        <ele>1036</ele>
        <time>2015-02-20T14:59:09Z</time>
      </trkpt>
      <trkpt lat="47.94537" lon="6.89263">
        <ele>1035</ele>
        <time>2015-02-20T14:59:19Z</time>
      </trkpt>
      <trkpt lat="47.94528" lon="6.89256">
        <ele>1034</ele>
        <time>2015-02-20T14:59:30Z</time>
      </trkpt>
      <trkpt lat="47.94518" lon="6.89247">
        <ele>1034</ele>
        <time>2015-02-20T14:59:40Z</time>
      </trkpt>
      <trkpt lat="47.94509" lon="6.89238">
        <ele>1033</ele>
        <time>2015-02-20T14:59:51Z</time>
      </trkpt>
      <trkpt lat="47.94499" lon="6.89232">
        <ele>1032</ele>
        <time>2015-02-20T15:00:01Z</time>
      </trkpt>
      <trkpt lat="47.94487" lon="6.89224">
        <ele>1031</ele>
        <time>2015-02-20T15:00:12Z</time>
      </trkpt>
      <trkpt lat="47.94479" lon="6.89215">
        <ele>1031</ele>
        <time>2015-02-20T15:00:22Z</time>
      </trkpt>
      <trkpt lat="47.94471" lon="6.89207">
        <ele>1031</ele>
        <time>2015-02-20T15:00:33Z</time>
      </trkpt>
      <trkpt lat="47.94464" lon="6.89193">
        <ele>1031</ele>
        <time>2015-02-20T15:00:43Z</time>
      </trkpt>
      <trkpt lat="47.9446" lon="6.8918">
        <ele>1029</ele>
        <time>2015-02-20T15:00:53Z</time>
      </trkpt>
      <trkpt lat="47.94455" lon="6.89166">
        <ele>1028</ele>
        <time>2015-02-20T15:01:04Z</time>
      </trkpt>
      <trkpt lat="47.94453" lon="6.89157">
        <ele>1028</ele>
        <time>2015-02-20T15:01:14Z</time>
      </trkpt>
      <trkpt lat="47.94447" lon="6.89148">
        <ele>1028</ele>
        <time>2015-02-20T15:01:25Z</time>
      </trkpt>
      <trkpt lat="47.94443" lon="6.89139">
        <ele>1028</ele>
        <time>2015-02-20T15:01:35Z</time>
      </trkpt>
      <trkpt lat="47.94434" lon="6.89133">
        <ele>1027</ele>
        <time>2015-02-20T15:01:45Z</time>
      </trkpt>
      <trkpt lat="47.94424" lon="6.89127">
        <ele>1027</ele>
        <time>2015-02-20T15:01:55Z</time>
      </trkpt>
      <trkpt lat="47.94415" lon="6.89123">
        <ele>1026</ele>
        <time>2015-02-20T15:02:06Z</time>
      </trkpt>
      <trkpt lat="47.94404" lon="6.89121">
        <ele>1026</ele>
        <time>2015-02-20T15:02:17Z</time>
      </trkpt>
      <trkpt lat="47.94395" lon="6.89116">
        <ele>1025</ele>
        <time>2015-02-20T15:02:27Z</time>
      </trkpt>
      <trkpt lat="47.94385" lon="6.89115">
        <ele>1024</ele>
        <time>2015-02-20T15:02:38Z</time>
      </trkpt>
      <trkpt lat="47.94375" lon="6.89112">
        <ele>1023</ele>
        <time>2015-02-20T15:02:48Z</time>
      </trkpt>
      <trkpt lat="47.94366" lon="6.89107">
        <ele>1021</ele>
        <time>2015-02-20T15:02:58Z</time>
      </trkpt>
      <trkpt lat="47.94357" lon="6.89111">
        <ele>1021</ele>
        <time>2015-02-20T15:03:09Z</time>
      </trkpt>
      <trkpt lat="47.94348" lon="6.89111">
        <ele>1020</ele>
        <time>2015-02-20T15:03:19Z</time>
      </trkpt>
      <trkpt lat="47.94336" lon="6.89107">
        <ele>1019</ele>
        <time>2015-02-20T15:03:30Z</time>
      </trkpt>
      <trkpt lat="47.94325" lon="6.89102">
        <ele>1019</ele>
        <time>2015-02-20T15:03:40Z</time>
      </trkpt>
      <trkpt lat="47.94314" lon="6.89098">
        <ele>1020</ele>
        <time>2015-02-20T15:03:51Z</time>
      </trkpt>
      <trkpt lat="47.94306" lon="6.89093">
        <ele>1020</ele>
        <time>2015-02-20T15:04:01Z</time>
      </trkpt>
      <trkpt lat="47.94297" lon="6.89093">
        <ele>1018</ele>
        <time>2015-02-20T15:04:12Z</time>
      </trkpt>
      <trkpt lat="47.94289" lon="6.89087">
        <ele>1017</ele>
        <time>2015-02-20T15:04:22Z</time>
      </trkpt>
      <trkpt lat="47.94281" lon="6.89082">
        <ele>1016</ele>
        <time>2015-02-20T15:04:32Z</time>
      </trkpt>
      <trkpt lat="47.94274" lon="6.89079">
        <ele>1015</ele>
        <time>2015-02-20T15:04:43Z</time>
      </trkpt>
      <trkpt lat="47.94264" lon="6.89076">
        <ele>1014</ele>
        <time>2015-02-20T15:04:53Z</time>
      </trkpt>
      <trkpt lat="47.94251" lon="6.89066">
        <ele>1013</ele>
        <time>2015-02-20T15:05:04Z</time>
      </trkpt>
      <trkpt lat="47.94244" lon="6.89052">
        <ele>1013</ele>
        <time>2015-02-20T15:05:14Z</time>
      </trkpt>
      <trkpt lat="47.94236" lon="6.89041">
        <ele>1013</ele>
        <time>2015-02-20T15:05:24Z</time>
      </trkpt>
      <trkpt lat="47.94225" lon="6.89032">
        <ele>1012</ele>
        <time>2015-02-20T15:05:35Z</time>
      </trkpt>
      <trkpt lat="47.94217" lon="6.89027">
        <ele>1010</ele>
        <time>2015-02-20T15:05:45Z</time>
      </trkpt>
      <trkpt lat="47.94207" lon="6.89021">
        <ele>1008</ele>
        <time>2015-02-20T15:05:56Z</time>
      </trkpt>
      <trkpt lat="47.94198" lon="6.89013">
        <ele>1006</ele>
        <time>2015-02-20T15:06:06Z</time>
      </trkpt>
      <trkpt lat="47.94186" lon="6.89007">
        <ele>1005</ele>
        <time>2015-02-20T15:06:17Z</time>
      </trkpt>
      <trkpt lat="47.94175" lon="6.89003">
        <ele>1004</ele>
        <time>2015-02-20T15:06:27Z</time>
      </trkpt>
      <trkpt lat="47.94167" lon="6.88998">
        <ele>1003</ele>
        <time>2015-02-20T15:06:37Z</time>
      </trkpt>
      <trkpt lat="47.9416" lon="6.88998">
        <ele>1003</ele>
        <time>2015-02-20T15:06:48Z</time>
      </trkpt>
      <trkpt lat="47.94153" lon="6.88995">
        <ele>1004</ele>
        <time>2015-02-20T15:06:58Z</time>
      </trkpt>
      <trkpt lat="47.94147" lon="6.88993">
        <ele>1003</ele>
        <time>2015-02-20T15:07:08Z</time>
      </trkpt>
      <trkpt lat="47.94138" lon="6.88988">
        <ele>1003</ele>
        <time>2015-02-20T15:07:19Z</time>
      </trkpt>
      <trkpt lat="47.94128" lon="6.88983">
        <ele>1002</ele>
        <time>2015-02-20T15:07:29Z</time>
      </trkpt>
      <trkpt lat="47.94119" lon="6.88977">
        <ele>1001</ele>
        <time>2015-02-20T15:07:39Z</time>
      </trkpt>
      <trkpt lat="47.94111" lon="6.88977">
        <ele>999</ele>
        <time>2015-02-20T15:07:49Z</time>
      </trkpt>
      <trkpt lat="47.94105" lon="6.88974">
        <ele>997</ele>
        <time>2015-02-20T15:08:00Z</time>
      </trkpt>
      <trkpt lat="47.94094" lon="6.88967">
        <ele>995</ele>
        <time>2015-02-20T15:08:10Z</time>
      </trkpt>
      <trkpt lat="47.94085" lon="6.88957">
        <ele>993</ele>
        <time>2015-02-20T15:08:21Z</time>
      </trkpt>
      <trkpt lat="47.94075" lon="6.88951">
        <ele>992</ele>
        <time>2015-02-20T15:08:31Z</time>
      </trkpt>
      <trkpt lat="47.94067" lon="6.88943">
        <ele>991</ele>
        <time>2015-02-20T15:08:41Z</time>
      </trkpt>
      <trkpt lat="47.94064" lon="6.88929">
        <ele>990</ele>
        <time>2015-02-20T15:08:51Z</time>
      </trkpt>
      <trkpt lat="47.94058" lon="6.88921">
        <ele>990</ele>
        <time>2015-02-20T15:09:02Z</time>
      </trkpt>
      <trkpt lat="47.9405" lon="6.88914">
        <ele>989</ele>
        <time>2015-02-20T15:09:13Z</time>
      </trkpt>
      <trkpt lat="47.9404" lon="6.88911">
        <ele>988</ele>
        <time>2015-02-20T15:09:23Z</time>
      </trkpt>
      <trkpt lat="47.94032" lon="6.88906">
        <ele>988</ele>
        <time>2015-02-20T15:09:33Z</time>
      </trkpt>
      <trkpt lat="47.94021" lon="6.88898">
        <ele>985</ele>
        <time>2015-02-20T15:09:43Z</time>
      </trkpt>
      <trkpt lat="47.94007" lon="6.8889">
        <ele>983</ele>
        <time>2015-02-20T15:09:54Z</time>
      </trkpt>
      <trkpt lat="47.93996" lon="6.88882">
        <ele>982</ele>
        <time>2015-02-20T15:10:04Z</time>
      </trkpt>
      <trkpt lat="47.93986" lon="6.88875">
        <ele>980</ele>
        <time>2015-02-20T15:10:15Z</time>
      </trkpt>
      <trkpt lat="47.93977" lon="6.88869">
        <ele>978</ele>
        <time>2015-02-20T15:10:25Z</time>
      </trkpt>
      <trkpt lat="47.9397" lon="6.88864">
        <ele>976</ele>
        <time>2015-02-20T15:10:35Z</time>
      </trkpt>
      <trkpt lat="47.93961" lon="6.88861">
        <ele>975</ele>
        <time>2015-02-20T15:10:45Z</time>
      </trkpt>
      <trkpt lat="47.93949" lon="6.88859">
        <ele>973</ele>
        <time>2015-02-20T15:10:56Z</time>
      </trkpt>
      <trkpt lat="47.9394" lon="6.88855">
        <ele>971</ele>
        <time>2015-02-20T15:11:06Z</time>
      </trkpt>
      <trkpt lat="47.9393" lon="6.88847">
        <ele>970</ele>
        <time>2015-02-20T15:11:17Z</time>
      </trkpt>
      <trkpt lat="47.93919" lon="6.88843">
        <ele>967</ele>
        <time>2015-02-20T15:11:27Z</time>
      </trkpt>
      <trkpt lat="47.93908" lon="6.88838">
        <ele>965</ele>
        <time>2015-02-20T15:11:37Z</time>
      </trkpt>
      <trkpt lat="47.93898" lon="6.88828">
        <ele>964</ele>
        <time>2015-02-20T15:11:48Z</time>
      </trkpt>
      <trkpt lat="47.93891" lon="6.88822">
        <ele>962</ele>
        <time>2015-02-20T15:11:59Z</time>
      </trkpt>
      <trkpt lat="47.93891" lon="6.88818">
        <ele>962</ele>
        <time>2015-02-20T15:12:09Z</time>
      </trkpt>
      <trkpt lat="47.93891" lon="6.88814">
        <ele>962</ele>
        <time>2015-02-20T15:12:20Z</time>
      </trkpt>
      <trkpt lat="47.93884" lon="6.88817">
        <ele>961</ele>
        <time>2015-02-20T15:12:31Z</time>
      </trkpt>
      <trkpt lat="47.93877" lon="6.88821">
        <ele>960</ele>
        <time>2015-02-20T15:12:41Z</time>
      </trkpt>
      <trkpt lat="47.93874" lon="6.88831">
        <ele>958</ele>
        <time>2015-02-20T15:12:52Z</time>
      </trkpt>
      <trkpt lat="47.93869" lon="6.88838">
        <ele>955</ele>
        <time>2015-02-20T15:13:02Z</time>
      </trkpt>
      <trkpt lat="47.93868" lon="6.88849">
        <ele>953</ele>
        <time>2015-02-20T15:13:13Z</time>
      </trkpt>
      <trkpt lat="47.93864" lon="6.88861">
        <ele>952</ele>
        <time>2015-02-20T15:13:24Z</time>
      </trkpt>
      <trkpt lat="47.93858" lon="6.88871">
        <ele>952</ele>
        <time>2015-02-20T15:13:34Z</time>
      </trkpt>
      <trkpt lat="47.93855" lon="6.88881">
        <ele>951</ele>
        <time>2015-02-20T15:13:44Z</time>
      </trkpt>
      <trkpt lat="47.93853" lon="6.88897">
        <ele>949</ele>
        <time>2015-02-20T15:13:55Z</time>
      </trkpt>
      <trkpt lat="47.93853" lon="6.88911">
        <ele>948</ele>
        <time>2015-02-20T15:14:05Z</time>
      </trkpt>
      <trkpt lat="47.93854" lon="6.88928">
        <ele>948</ele>
        <time>2015-02-20T15:14:16Z</time>
      </trkpt>
      <trkpt lat="47.93858" lon="6.88942">
        <ele>947</ele>
        <time>2015-02-20T15:14:26Z</time>
      </trkpt>
      <trkpt lat="47.93861" lon="6.88954">
        <ele>947</ele>
        <time>2015-02-20T15:14:36Z</time>
      </trkpt>
      <trkpt lat="47.93869" lon="6.8897">
        <ele>946</ele>
        <time>2015-02-20T15:14:47Z</time>
      </trkpt>
      <trkpt lat="47.93872" lon="6.88985">
        <ele>946</ele>
        <time>2015-02-20T15:14:58Z</time>
      </trkpt>
      <trkpt lat="47.93875" lon="6.89001">
        <ele>945</ele>
        <time>2015-02-20T15:15:09Z</time>
      </trkpt>
      <trkpt lat="47.9388" lon="6.89016">
        <ele>944</ele>
        <time>2015-02-20T15:15:19Z</time>
      </trkpt>
      <trkpt lat="47.93888" lon="6.89033">
        <ele>944</ele>
        <time>2015-02-20T15:15:30Z</time>
      </trkpt>
      <trkpt lat="47.93897" lon="6.89047">
        <ele>943</ele>
        <time>2015-02-20T15:15:41Z</time>
      </trkpt>
      <trkpt lat="47.93898" lon="6.89057">
        <ele>942</ele>
        <time>2015-02-20T15:15:51Z</time>
      </trkpt>
      <trkpt lat="47.93904" lon="6.89069">
        <ele>941</ele>
        <time>2015-02-20T15:16:02Z</time>
      </trkpt>
      <trkpt lat="47.93911" lon="6.89084">
        <ele>941</ele>
        <time>2015-02-20T15:16:13Z</time>
      </trkpt>
      <trkpt lat="47.93919" lon="6.89101">
        <ele>940</ele>
        <time>2015-02-20T15:16:24Z</time>
      </trkpt>
      <trkpt lat="47.93927" lon="6.89113">
        <ele>939</ele>
        <time>2015-02-20T15:16:34Z</time>
      </trkpt>
      <trkpt lat="47.93936" lon="6.89127">
        <ele>939</ele>
        <time>2015-02-20T15:16:45Z</time>
      </trkpt>
      <trkpt lat="47.93945" lon="6.89137">
        <ele>939</ele>
        <time>2015-02-20T15:16:55Z</time>
      </trkpt>
      <trkpt lat="47.9395" lon="6.89148">
        <ele>938</ele>
        <time>2015-02-20T15:17:06Z</time>
      </trkpt>
      <trkpt lat="47.93959" lon="6.89158">
        <ele>938</ele>
        <time>2015-02-20T15:17:17Z</time>
      </trkpt>
      <trkpt lat="47.93968" lon="6.89168">
        <ele>937</ele>
        <time>2015-02-20T15:17:27Z</time>
      </trkpt>
      <trkpt lat="47.93978" lon="6.89178">
        <ele>937</ele>
        <time>2015-02-20T15:17:37Z</time>
      </trkpt>
      <trkpt lat="47.93988" lon="6.8919">
        <ele>936</ele>
        <time>2015-02-20T15:17:48Z</time>
      </trkpt>
      <trkpt lat="47.93997" lon="6.89199">
        <ele>936</ele>
        <time>2015-02-20T15:17:59Z</time>
      </trkpt>
      <trkpt lat="47.94007" lon="6.89207">
        <ele>935</ele>
        <time>2015-02-20T15:18:09Z</time>
      </trkpt>
      <trkpt lat="47.94016" lon="6.89218">
        <ele>934</ele>
        <time>2015-02-20T15:18:19Z</time>
      </trkpt>
      <trkpt lat="47.94023" lon="6.8923">
        <ele>934</ele>
        <time>2015-02-20T15:18:30Z</time>
      </trkpt>
      <trkpt lat="47.94034" lon="6.89244">
        <ele>933</ele>
        <time>2015-02-20T15:18:41Z</time>
      </trkpt>
      <trkpt lat="47.94043" lon="6.89258">
        <ele>932</ele>
        <time>2015-02-20T15:18:52Z</time>
      </trkpt>
      <trkpt lat="47.94052" lon="6.89272">
        <ele>932</ele>
        <time>2015-02-20T15:19:02Z</time>
      </trkpt>
      <trkpt lat="47.94058" lon="6.8928">
        <ele>931</ele>
        <time>2015-02-20T15:19:12Z</time>
      </trkpt>
      <trkpt lat="47.94067" lon="6.89293">
        <ele>930</ele>
        <time>2015-02-20T15:19:23Z</time>
      </trkpt>
      <trkpt lat="47.94077" lon="6.89307">
        <ele>928</ele>
        <time>2015-02-20T15:19:34Z</time>
      </trkpt>
      <trkpt lat="47.94085" lon="6.89323">
        <ele>928</ele>
        <time>2015-02-20T15:19:44Z</time>
      </trkpt>
      <trkpt lat="47.94095" lon="6.89339">
        <ele>927</ele>
        <time>2015-02-20T15:19:55Z</time>
      </trkpt>
      <trkpt lat="47.94102" lon="6.89354">
        <ele>925</ele>
        <time>2015-02-20T15:20:06Z</time>
      </trkpt>
      <trkpt lat="47.94109" lon="6.8937">
        <ele>925</ele>
        <time>2015-02-20T15:20:16Z</time>
      </trkpt>
      <trkpt lat="47.94116" lon="6.89385">
        <ele>923</ele>
        <time>2015-02-20T15:20:26Z</time>
      </trkpt>
      <trkpt lat="47.94122" lon="6.89402">
        <ele>922</ele>
        <time>2015-02-20T15:20:37Z</time>
      </trkpt>
      <trkpt lat="47.94129" lon="6.89419">
        <ele>921</ele>
        <time>2015-02-20T15:20:48Z</time>
      </trkpt>
      <trkpt lat="47.94136" lon="6.89435">
        <ele>920</ele>
        <time>2015-02-20T15:20:59Z</time>
      </trkpt>
      <trkpt lat="47.94144" lon="6.89447">
        <ele>919</ele>
        <time>2015-02-20T15:21:09Z</time>
      </trkpt>
      <trkpt lat="47.94152" lon="6.89461">
        <ele>918</ele>
        <time>2015-02-20T15:21:20Z</time>
      </trkpt>
      <trkpt lat="47.94159" lon="6.89473">
        <ele>917</ele>
        <time>2015-02-20T15:21:30Z</time>
      </trkpt>
      <trkpt lat="47.94165" lon="6.89491">
        <ele>916</ele>
        <time>2015-02-20T15:21:41Z</time>
      </trkpt>
      <trkpt lat="47.94169" lon="6.89507">
        <ele>915</ele>
        <time>2015-02-20T15:21:51Z</time>
      </trkpt>
      <trkpt lat="47.94174" lon="6.89523">
        <ele>914</ele>
        <time>2015-02-20T15:22:02Z</time>
      </trkpt>
      <trkpt lat="47.94178" lon="6.89536">
        <ele>913</ele>
        <time>2015-02-20T15:22:12Z</time>
      </trkpt>
      <trkpt lat="47.94185" lon="6.89549">
        <ele>912</ele>
        <time>2015-02-20T15:22:23Z</time>
      </trkpt>
      <trkpt lat="47.94192" lon="6.8956">
        <ele>911</ele>
        <time>2015-02-20T15:22:33Z</time>
      </trkpt>
      <trkpt lat="47.94201" lon="6.89571">
        <ele>909</ele>
        <time>2015-02-20T15:22:43Z</time>
      </trkpt>
      <trkpt lat="47.94209" lon="6.89582">
        <ele>908</ele>
        <time>2015-02-20T15:22:54Z</time>
      </trkpt>
      <trkpt lat="47.94216" lon="6.89594">
        <ele>907</ele>
        <time>2015-02-20T15:23:04Z</time>
      </trkpt>
      <trkpt lat="47.94226" lon="6.89607">
        <ele>906</ele>
        <time>2015-02-20T15:23:15Z</time>
      </trkpt>
      <trkpt lat="47.94233" lon="6.89619">
        <ele>904</ele>
        <time>2015-02-20T15:23:25Z</time>
      </trkpt>
      <trkpt lat="47.9424" lon="6.89634">
        <ele>903</ele>
        <time>2015-02-20T15:23:36Z</time>
      </trkpt>
      <trkpt lat="47.94249" lon="6.89653">
        <ele>903</ele>
        <time>2015-02-20T15:23:47Z</time>
      </trkpt>
      <trkpt lat="47.94257" lon="6.89668">
        <ele>901</ele>
        <time>2015-02-20T15:23:57Z</time>
      </trkpt>
      <trkpt lat="47.94262" lon="6.89682">
        <ele>900</ele>
        <time>2015-02-20T15:24:07Z</time>
      </trkpt>
      <trkpt lat="47.94268" lon="6.89697">
        <ele>899</ele>
        <time>2015-02-20T15:24:17Z</time>
      </trkpt>
      <trkpt lat="47.94273" lon="6.89713">
        <ele>898</ele>
        <time>2015-02-20T15:24:28Z</time>
      </trkpt>
      <trkpt lat="47.9428" lon="6.8973">
        <ele>897</ele>
        <time>2015-02-20T15:24:39Z</time>
      </trkpt>
      <trkpt lat="47.94286" lon="6.89748">
        <ele>897</ele>
        <time>2015-02-20T15:24:50Z</time>
      </trkpt>
      <trkpt lat="47.94292" lon="6.89766">
        <ele>895</ele>
        <time>2015-02-20T15:25:01Z</time>
      </trkpt>
      <trkpt lat="47.94298" lon="6.89781">
        <ele>894</ele>
        <time>2015-02-20T15:25:11Z</time>
      </trkpt>
      <trkpt lat="47.94304" lon="6.89797">
        <ele>892</ele>
        <time>2015-02-20T15:25:22Z</time>
      </trkpt>
      <trkpt lat="47.94308" lon="6.89811">
        <ele>891</ele>
        <time>2015-02-20T15:25:32Z</time>
      </trkpt>
      <trkpt lat="47.94313" lon="6.8982">
        <ele>890</ele>
        <time>2015-02-20T15:25:43Z</time>
      </trkpt>
      <trkpt lat="47.94321" lon="6.89836">
        <ele>890</ele>
        <time>2015-02-20T15:25:54Z</time>
      </trkpt>
      <trkpt lat="47.94329" lon="6.89849">
        <ele>889</ele>
        <time>2015-02-20T15:26:04Z</time>
      </trkpt>
      <trkpt lat="47.94336" lon="6.89867">
        <ele>888</ele>
        <time>2015-02-20T15:26:15Z</time>
      </trkpt>
      <trkpt lat="47.9434" lon="6.89883">
        <ele>887</ele>
        <time>2015-02-20T15:26:25Z</time>
      </trkpt>
      <trkpt lat="47.94344" lon="6.899">
        <ele>885</ele>
        <time>2015-02-20T15:26:36Z</time>
      </trkpt>
      <trkpt lat="47.94347" lon="6.89917">
        <ele>884</ele>
        <time>2015-02-20T15:26:46Z</time>
      </trkpt>
      <trkpt lat="47.94352" lon="6.89932">
        <ele>884</ele>
        <time>2015-02-20T15:26:56Z</time>
      </trkpt>
      <trkpt lat="47.94357" lon="6.89948">
        <ele>884</ele>
        <time>2015-02-20T15:27:06Z</time>
      </trkpt>
      <trkpt lat="47.9436" lon="6.89958">
        <ele>884</ele>
        <time>2015-02-20T15:27:17Z</time>
      </trkpt>
      <trkpt lat="47.94358" lon="6.8996">
        <ele>884</ele>
        <time>2015-02-20T15:27:27Z</time>
      </trkpt>
      <trkpt lat="47.94356" lon="6.89962">
        <ele>885</ele>
        <time>2015-02-20T15:27:38Z</time>
      </trkpt>
      <trkpt lat="47.94353" lon="6.89966">
        <ele>884</ele>
        <time>2015-02-20T15:27:49Z</time>
      </trkpt>
      <trkpt lat="47.94353" lon="6.89968">
        <ele>884</ele>
        <time>2015-02-20T15:27:59Z</time>
      </trkpt>
      <trkpt lat="47.94354" lon="6.89969">
        <ele>884</ele>
        <time>2015-02-20T15:28:10Z</time>
      </trkpt>
      <trkpt lat="47.94357" lon="6.89969">
        <ele>884</ele>
        <time>2015-02-20T15:28:20Z</time>
      </trkpt>
      <trkpt lat="47.94362" lon="6.89974">
        <ele>883</ele>
        <time>2015-02-20T15:28:30Z</time>
      </trkpt>
      <trkpt lat="47.94363" lon="6.8997">
        <ele>884</ele>
        <time>2015-02-20T15:28:41Z</time>
      </trkpt>
      <trkpt lat="47.94366" lon="6.89968">
        <ele>884</ele>
        <time>2015-02-20T15:28:52Z</time>
      </trkpt>
      <trkpt lat="47.94368" lon="6.89968">
        <ele>884</ele>
        <time>2015-02-20T15:29:02Z</time>
      </trkpt>
      <trkpt lat="47.9437" lon="6.89967">
        <ele>884</ele>
        <time>2015-02-20T15:29:13Z</time>
      </trkpt>
      <trkpt lat="47.9437" lon="6.89967">
        <ele>884</ele>
        <time>2015-02-20T15:29:23Z</time>
      </trkpt>
      <trkpt lat="47.94371" lon="6.89967">
        <ele>884</ele>
        <time>2015-02-20T15:29:34Z</time>
      </trkpt>
      <trkpt lat="47.94372" lon="6.89967">
        <ele>885</ele>
        <time>2015-02-20T15:29:44Z</time>
      </trkpt>
      <trkpt lat="47.94373" lon="6.89968">
        <ele>884</ele>
        <time>2015-02-20T15:29:54Z</time>
      </trkpt>
      <trkpt lat="47.94373" lon="6.8997">
        <ele>885</ele>
        <time>2015-02-20T15:30:04Z</time>
      </trkpt>
      <trkpt lat="47.94378" lon="6.89977">
        <ele>885</ele>
        <time>2015-02-20T15:30:15Z</time>
      </trkpt>
      <trkpt lat="47.94384" lon="6.89984">
        <ele>885</ele>
        <time>2015-02-20T15:30:26Z</time>
      </trkpt>
      <trkpt lat="47.94391" lon="6.89991">
        <ele>885</ele>
        <time>2015-02-20T15:30:37Z</time>
      </trkpt>
      <trkpt lat="47.94398" lon="6.89997">
        <ele>885</ele>
        <time>2015-02-20T15:30:47Z</time>
      </trkpt>
      <trkpt lat="47.94408" lon="6.90011">
        <ele>885</ele>
        <time>2015-02-20T15:30:57Z</time>
      </trkpt>
      <trkpt lat="47.94416" lon="6.90022">
        <ele>885</ele>
        <time>2015-02-20T15:31:07Z</time>
      </trkpt>
      <trkpt lat="47.94422" lon="6.90036">
        <ele>885</ele>
        <time>2015-02-20T15:31:18Z</time>
      </trkpt>
      <trkpt lat="47.94431" lon="6.90051">
        <ele>886</ele>
        <time>2015-02-20T15:31:29Z</time>
      </trkpt>
      <trkpt lat="47.94438" lon="6.90066">
        <ele>886</ele>
        <time>2015-02-20T15:31:39Z</time>
      </trkpt>
      <trkpt lat="47.94448" lon="6.90081">
        <ele>887</ele>
        <time>2015-02-20T15:31:49Z</time>
      </trkpt>
      <trkpt lat="47.94455" lon="6.90094">
        <ele>887</ele>
        <time>2015-02-20T15:32:00Z</time>
      </trkpt>
      <trkpt lat="47.94462" lon="6.90104">
        <ele>887</ele>
        <time>2015-02-20T15:32:11Z</time>
      </trkpt>
      <trkpt lat="47.94469" lon="6.90112">
        <ele>887</ele>
        <time>2015-02-20T15:32:22Z</time>
      </trkpt>
      <trkpt lat="47.94476" lon="6.90121">
        <ele>887</ele>
        <time>2015-02-20T15:32:32Z</time>
      </trkpt>
      <trkpt lat="47.94481" lon="6.90133">
        <ele>887</ele>
        <time>2015-02-20T15:32:43Z</time>
      </trkpt>
      <trkpt lat="47.94487" lon="6.90145">
        <ele>888</ele>
        <time>2015-02-20T15:32:53Z</time>
      </trkpt>
      <trkpt lat="47.94494" lon="6.9016">
        <ele>888</ele>
        <time>2015-02-20T15:33:04Z</time>
      </trkpt>
      <trkpt lat="47.94505" lon="6.90169">
        <ele>888</ele>
        <time>2015-02-20T15:33:15Z</time>
      </trkpt>
      <trkpt lat="47.94513" lon="6.90179">
        <ele>888</ele>
        <time>2015-02-20T15:33:25Z</time>
      </trkpt>
      <trkpt lat="47.94522" lon="6.90191">
        <ele>889</ele>
        <time>2015-02-20T15:33:35Z</time>
      </trkpt>
      <trkpt lat="47.94531" lon="6.90204">
        <ele>889</ele>
        <time>2015-02-20T15:33:46Z</time>
      </trkpt>
      <trkpt lat="47.94537" lon="6.90218">
        <ele>889</ele>
        <time>2015-02-20T15:33:56Z</time>
      </trkpt>
      <trkpt lat="47.94545" lon="6.90235">
        <ele>889</ele>
        <time>2015-02-20T15:34:06Z</time>
      </trkpt>
      <trkpt lat="47.94553" lon="6.90248">
        <ele>890</ele>
        <time>2015-02-20T15:34:17Z</time>
      </trkpt>
      <trkpt lat="47.94561" lon="6.90259">
        <ele>890</ele>
        <time>2015-02-20T15:34:27Z</time>
      </trkpt>
      <trkpt lat="47.94571" lon="6.90268">
        <ele>890</ele>
        <time>2015-02-20T15:34:38Z</time>
      </trkpt>
      <trkpt lat="47.94576" lon="6.90277">
        <ele>890</ele>
        <time>2015-02-20T15:34:48Z</time>
      </trkpt>
      <trkpt lat="47.94585" lon="6.90287">
        <ele>890</ele>
        <time>2015-02-20T15:34:59Z</time>
      </trkpt>
      <trkpt lat="47.94593" lon="6.90296">
        <ele>890</ele>
        <time>2015-02-20T15:35:09Z</time>
      </trkpt>
      <trkpt lat="47.94601" lon="6.90307">
        <ele>891</ele>
        <time>2015-02-20T15:35:20Z</time>
      </trkpt>
      <trkpt lat="47.94608" lon="6.90319">
        <ele>890</ele>
        <time>2015-02-20T15:35:30Z</time>
      </trkpt>
      <trkpt lat="47.94615" lon="6.90327">
        <ele>891</ele>
        <time>2015-02-20T15:35:41Z</time>
      </trkpt>
      <trkpt lat="47.94622" lon="6.90335">
        <ele>891</ele>
        <time>2015-02-20T15:35:52Z</time>
      </trkpt>
      <trkpt lat="47.94631" lon="6.90342">
        <ele>891</ele>
        <time>2015-02-20T15:36:02Z</time>
      </trkpt>
      <trkpt lat="47.94642" lon="6.90351">
        <ele>891</ele>
        <time>2015-02-20T15:36:13Z</time>
      </trkpt>
      <trkpt lat="47.94652" lon="6.90361">
        <ele>891</ele>
        <time>2015-02-20T15:36:23Z</time>
      </trkpt>
      <trkpt lat="47.94659" lon="6.90371">
        <ele>891</ele>
        <time>2015-02-20T15:36:34Z</time>
      </trkpt>
      <trkpt lat="47.94665" lon="6.9038">
        <ele>892</ele>
        <time>2015-02-20T15:36:44Z</time>
      </trkpt>
      <trkpt lat="47.94671" lon="6.90389">
        <ele>892</ele>
        <time>2015-02-20T15:36:54Z</time>
      </trkpt>
      <trkpt lat="47.94676" lon="6.90395">
        <ele>893</ele>
        <time>2015-02-20T15:37:04Z</time>
      </trkpt>
      <trkpt lat="47.94682" lon="6.90395">
        <ele>893</ele>
        <time>2015-02-20T15:37:15Z</time>
      </trkpt>
      <trkpt lat="47.94691" lon="6.90401">
        <ele>894</ele>
        <time>2015-02-20T15:37:25Z</time>
      </trkpt>
      <trkpt lat="47.94699" lon="6.90405">
        <ele>894</ele>
        <time>2015-02-20T15:37:35Z</time>
      </trkpt>
      <trkpt lat="47.94706" lon="6.90409">
        <ele>893</ele>
        <time>2015-02-20T15:37:46Z</time>
      </trkpt>
      <trkpt lat="47.94712" lon="6.90414">
        <ele>894</ele>
        <time>2015-02-20T15:37:56Z</time>
      </trkpt>
      <trkpt lat="47.94719" lon="6.90417">
        <ele>894</ele>
        <time>2015-02-20T15:38:06Z</time>
      </trkpt>
      <trkpt lat="47.94728" lon="6.90419">
        <ele>894</ele>
        <time>2015-02-20T15:38:17Z</time>
      </trkpt>
      <trkpt lat="47.94736" lon="6.90422">
        <ele>895</ele>
        <time>2015-02-20T15:38:28Z</time>
      </trkpt>
      <trkpt lat="47.94742" lon="6.90427">
        <ele>895</ele>
        <time>2015-02-20T15:38:38Z</time>
      </trkpt>
      <trkpt lat="47.94748" lon="6.90433">
        <ele>896</ele>
        <time>2015-02-20T15:38:49Z</time>
      </trkpt>
      <trkpt lat="47.94759" lon="6.90439">
        <ele>897</ele>
        <time>2015-02-20T15:38:59Z</time>
      </trkpt>
      <trkpt lat="47.94771" lon="6.90442">
        <ele>897</ele>
        <time>2015-02-20T15:39:10Z</time>
      </trkpt>
      <trkpt lat="47.94781" lon="6.90449">
        <ele>898</ele>
        <time>2015-02-20T15:39:20Z</time>
      </trkpt>
      <trkpt lat="47.94792" lon="6.90454">
        <ele>898</ele>
        <time>2015-02-20T15:39:30Z</time>
      </trkpt>
      <trkpt lat="47.94801" lon="6.90457">
        <ele>898</ele>
        <time>2015-02-20T15:39:40Z</time>
      </trkpt>
      <trkpt lat="47.9481" lon="6.90462">
        <ele>898</ele>
        <time>2015-02-20T15:39:51Z</time>
      </trkpt>
      <trkpt lat="47.94816" lon="6.9047">
        <ele>898</ele>
        <time>2015-02-20T15:40:01Z</time>
      </trkpt>
      <trkpt lat="47.94822" lon="6.90476">
        <ele>899</ele>
        <time>2015-02-20T15:40:11Z</time>
      </trkpt>
      <trkpt lat="47.9483" lon="6.90482">
        <ele>899</ele>
        <time>2015-02-20T15:40:21Z</time>
      </trkpt>
      <trkpt lat="47.94833" lon="6.90489">
        <ele>899</ele>
        <time>2015-02-20T15:40:32Z</time>
      </trkpt>
      <trkpt lat="47.94836" lon="6.90491">
        <ele>898</ele>
        <time>2015-02-20T15:40:42Z</time>
      </trkpt>
      <trkpt lat="47.94841" lon="6.9049">
        <ele>898</ele>
        <time>2015-02-20T15:40:52Z</time>
      </trkpt>
      <trkpt lat="47.94843" lon="6.90491">
        <ele>899</ele>
        <time>2015-02-20T15:41:03Z</time>
      </trkpt>
      <trkpt lat="47.94844" lon="6.90493">
        <ele>899</ele>
        <time>2015-02-20T15:41:13Z</time>
      </trkpt>
      <trkpt lat="47.94843" lon="6.90494">
        <ele>899</ele>
        <time>2015-02-20T15:41:24Z</time>
      </trkpt>
      <trkpt lat="47.94841" lon="6.90494">
        <ele>899</ele>
        <time>2015-02-20T15:41:34Z</time>
      </trkpt>
      <trkpt lat="47.94838" lon="6.90495">
        <ele>899</ele>
        <time>2015-02-20T15:41:45Z</time>
      </trkpt>
      <trkpt lat="47.94837" lon="6.90492">
        <ele>900</ele>
        <time>2015-02-20T15:41:55Z</time>
      </trkpt>
      <trkpt lat="47.94835" lon="6.90491">
        <ele>899</ele>
        <time>2015-02-20T15:42:06Z</time>
      </trkpt>
      <trkpt lat="47.94835" lon="6.90491">
        <ele>899</ele>
        <time>2015-02-20T15:42:07Z</time>
      </trkpt>
    </trkseg>
  </trk>
</gpx>